<?xml version="1.0" encoding="UTF-8" standalone="no" ?>
<gpx xmlns="http://www.topografix.com/GPX/1/1" xmlns:xsi="http://www.w3.org/2001/XMLSchema-instance" xsi:schemaLocation="http://www.topografix.com/GPX/1/1 http://www.topografix.com/GPX/1/1/gpx.xsd" version="1.1" creator="VisuGPX - https://www.visugpx.com">
  <metadata>
    <name>Le Col du Foron (74 Chablais)</name>
    <desc><![CDATA[grp_trc:]]></desc>
  </metadata>
  <trk>
    <name><![CDATA[30 janv. 2022]]></name>
    <cmt><![CDATA[09:17:33]]></cmt>
    <desc><![CDATA[comment ...]]></desc>
    <trkseg>
      <trkpt lat="46.1551" lon="6.61719">
        <ele>1198</ele>
        <time>2022-01-30T08:18:20Z</time>
      </trkpt>
      <trkpt lat="46.15509" lon="6.61713">
        <ele>1197</ele>
        <time>2022-01-30T08:18:34Z</time>
      </trkpt>
      <trkpt lat="46.15509" lon="6.61712">
        <ele>1197</ele>
        <time>2022-01-30T08:19:16Z</time>
      </trkpt>
      <trkpt lat="46.15508" lon="6.61709">
        <ele>1197</ele>
        <time>2022-01-30T08:19:19Z</time>
      </trkpt>
      <trkpt lat="46.15508" lon="6.61703">
        <ele>1197</ele>
        <time>2022-01-30T08:19:23Z</time>
      </trkpt>
      <trkpt lat="46.15508" lon="6.61699">
        <ele>1199</ele>
        <time>2022-01-30T08:19:28Z</time>
      </trkpt>
      <trkpt lat="46.15507" lon="6.61698">
        <ele>1197</ele>
        <time>2022-01-30T08:19:56Z</time>
      </trkpt>
      <trkpt lat="46.15511" lon="6.617">
        <ele>1200</ele>
        <time>2022-01-30T08:21:02Z</time>
      </trkpt>
      <trkpt lat="46.15515" lon="6.61703">
        <ele>1199</ele>
        <time>2022-01-30T08:21:13Z</time>
      </trkpt>
      <trkpt lat="46.15518" lon="6.61705">
        <ele>1199</ele>
        <time>2022-01-30T08:21:20Z</time>
      </trkpt>
      <trkpt lat="46.15518" lon="6.61705">
        <ele>1197</ele>
        <time>2022-01-30T08:22:29Z</time>
      </trkpt>
      <trkpt lat="46.15521" lon="6.61703">
        <ele>1197</ele>
        <time>2022-01-30T08:22:58Z</time>
      </trkpt>
      <trkpt lat="46.15528" lon="6.61704">
        <ele>1199</ele>
        <time>2022-01-30T08:23:09Z</time>
      </trkpt>
      <trkpt lat="46.15531" lon="6.61703">
        <ele>1200</ele>
        <time>2022-01-30T08:24:08Z</time>
      </trkpt>
      <trkpt lat="46.15535" lon="6.61705">
        <ele>1200</ele>
        <time>2022-01-30T08:24:14Z</time>
      </trkpt>
      <trkpt lat="46.15542" lon="6.61708">
        <ele>1199</ele>
        <time>2022-01-30T08:24:24Z</time>
      </trkpt>
      <trkpt lat="46.15545" lon="6.61712">
        <ele>1198</ele>
        <time>2022-01-30T08:24:30Z</time>
      </trkpt>
      <trkpt lat="46.15563" lon="6.61721">
        <ele>1194</ele>
        <time>2022-01-30T08:24:54Z</time>
      </trkpt>
      <trkpt lat="46.15575" lon="6.61723">
        <ele>1193</ele>
        <time>2022-01-30T08:25:25Z</time>
      </trkpt>
      <trkpt lat="46.156" lon="6.61731">
        <ele>1195</ele>
        <time>2022-01-30T08:25:54Z</time>
      </trkpt>
      <trkpt lat="46.15613" lon="6.61746">
        <ele>1195</ele>
        <time>2022-01-30T08:26:09Z</time>
      </trkpt>
      <trkpt lat="46.15625" lon="6.61748">
        <ele>1194</ele>
        <time>2022-01-30T08:26:21Z</time>
      </trkpt>
      <trkpt lat="46.15643" lon="6.61754">
        <ele>1195</ele>
        <time>2022-01-30T08:26:39Z</time>
      </trkpt>
      <trkpt lat="46.15666" lon="6.6175">
        <ele>1194</ele>
        <time>2022-01-30T08:27:12Z</time>
      </trkpt>
      <trkpt lat="46.15692" lon="6.61751">
        <ele>1192</ele>
        <time>2022-01-30T08:27:48Z</time>
      </trkpt>
      <trkpt lat="46.15701" lon="6.61751">
        <ele>1195</ele>
        <time>2022-01-30T08:27:58Z</time>
      </trkpt>
      <trkpt lat="46.15707" lon="6.61753">
        <ele>1196</ele>
        <time>2022-01-30T08:28:05Z</time>
      </trkpt>
      <trkpt lat="46.15721" lon="6.61759">
        <ele>1196</ele>
        <time>2022-01-30T08:28:21Z</time>
      </trkpt>
      <trkpt lat="46.15743" lon="6.61765">
        <ele>1200</ele>
        <time>2022-01-30T08:28:52Z</time>
      </trkpt>
      <trkpt lat="46.15748" lon="6.61767">
        <ele>1202</ele>
        <time>2022-01-30T08:28:58Z</time>
      </trkpt>
      <trkpt lat="46.15752" lon="6.6177">
        <ele>1202</ele>
        <time>2022-01-30T08:29:02Z</time>
      </trkpt>
      <trkpt lat="46.15777" lon="6.61778">
        <ele>1199</ele>
        <time>2022-01-30T08:29:34Z</time>
      </trkpt>
      <trkpt lat="46.15787" lon="6.61787">
        <ele>1197</ele>
        <time>2022-01-30T08:29:46Z</time>
      </trkpt>
      <trkpt lat="46.15814" lon="6.61792">
        <ele>1198</ele>
        <time>2022-01-30T08:30:16Z</time>
      </trkpt>
      <trkpt lat="46.15821" lon="6.61796">
        <ele>1200</ele>
        <time>2022-01-30T08:30:26Z</time>
      </trkpt>
      <trkpt lat="46.15848" lon="6.61806">
        <ele>1196</ele>
        <time>2022-01-30T08:30:56Z</time>
      </trkpt>
      <trkpt lat="46.15875" lon="6.6182">
        <ele>1200</ele>
        <time>2022-01-30T08:31:28Z</time>
      </trkpt>
      <trkpt lat="46.15883" lon="6.61824">
        <ele>1201</ele>
        <time>2022-01-30T08:31:36Z</time>
      </trkpt>
      <trkpt lat="46.15891" lon="6.61825">
        <ele>1203</ele>
        <time>2022-01-30T08:31:46Z</time>
      </trkpt>
      <trkpt lat="46.15917" lon="6.61841">
        <ele>1200</ele>
        <time>2022-01-30T08:32:17Z</time>
      </trkpt>
      <trkpt lat="46.15925" lon="6.61842">
        <ele>1201</ele>
        <time>2022-01-30T08:33:12Z</time>
      </trkpt>
      <trkpt lat="46.15954" lon="6.61853">
        <ele>1205</ele>
        <time>2022-01-30T08:33:44Z</time>
      </trkpt>
      <trkpt lat="46.15978" lon="6.61861">
        <ele>1207</ele>
        <time>2022-01-30T08:34:10Z</time>
      </trkpt>
      <trkpt lat="46.16006" lon="6.61861">
        <ele>1211</ele>
        <time>2022-01-30T08:34:41Z</time>
      </trkpt>
      <trkpt lat="46.16027" lon="6.61861">
        <ele>1209</ele>
        <time>2022-01-30T08:35:03Z</time>
      </trkpt>
      <trkpt lat="46.16033" lon="6.6186">
        <ele>1210</ele>
        <time>2022-01-30T08:35:09Z</time>
      </trkpt>
      <trkpt lat="46.16062" lon="6.61865">
        <ele>1212</ele>
        <time>2022-01-30T08:35:41Z</time>
      </trkpt>
      <trkpt lat="46.16067" lon="6.61865">
        <ele>1208</ele>
        <time>2022-01-30T08:36:19Z</time>
      </trkpt>
      <trkpt lat="46.16093" lon="6.61865">
        <ele>1203</ele>
        <time>2022-01-30T08:36:49Z</time>
      </trkpt>
      <trkpt lat="46.16119" lon="6.61866">
        <ele>1203</ele>
        <time>2022-01-30T08:37:20Z</time>
      </trkpt>
      <trkpt lat="46.16146" lon="6.61868">
        <ele>1206</ele>
        <time>2022-01-30T08:37:53Z</time>
      </trkpt>
      <trkpt lat="46.16154" lon="6.61868">
        <ele>1205</ele>
        <time>2022-01-30T08:38:03Z</time>
      </trkpt>
      <trkpt lat="46.16162" lon="6.61871">
        <ele>1207</ele>
        <time>2022-01-30T08:38:15Z</time>
      </trkpt>
      <trkpt lat="46.16188" lon="6.61882">
        <ele>1208</ele>
        <time>2022-01-30T08:38:48Z</time>
      </trkpt>
      <trkpt lat="46.16197" lon="6.61884">
        <ele>1209</ele>
        <time>2022-01-30T08:38:59Z</time>
      </trkpt>
      <trkpt lat="46.1622" lon="6.6189">
        <ele>1209</ele>
        <time>2022-01-30T08:39:30Z</time>
      </trkpt>
      <trkpt lat="46.16241" lon="6.61893">
        <ele>1212</ele>
        <time>2022-01-30T08:40:00Z</time>
      </trkpt>
      <trkpt lat="46.16255" lon="6.61897">
        <ele>1213</ele>
        <time>2022-01-30T08:40:20Z</time>
      </trkpt>
      <trkpt lat="46.16259" lon="6.619">
        <ele>1213</ele>
        <time>2022-01-30T08:40:24Z</time>
      </trkpt>
      <trkpt lat="46.16266" lon="6.61903">
        <ele>1213</ele>
        <time>2022-01-30T08:40:35Z</time>
      </trkpt>
      <trkpt lat="46.16287" lon="6.61903">
        <ele>1217</ele>
        <time>2022-01-30T08:41:09Z</time>
      </trkpt>
      <trkpt lat="46.16298" lon="6.61902">
        <ele>1219</ele>
        <time>2022-01-30T08:41:25Z</time>
      </trkpt>
      <trkpt lat="46.16321" lon="6.61888">
        <ele>1219</ele>
        <time>2022-01-30T08:41:58Z</time>
      </trkpt>
      <trkpt lat="46.16335" lon="6.61881">
        <ele>1219</ele>
        <time>2022-01-30T08:42:16Z</time>
      </trkpt>
      <trkpt lat="46.16339" lon="6.61879">
        <ele>1220</ele>
        <time>2022-01-30T08:42:22Z</time>
      </trkpt>
      <trkpt lat="46.16347" lon="6.61874">
        <ele>1220</ele>
        <time>2022-01-30T08:42:34Z</time>
      </trkpt>
      <trkpt lat="46.16362" lon="6.61863">
        <ele>1222</ele>
        <time>2022-01-30T08:42:54Z</time>
      </trkpt>
      <trkpt lat="46.16366" lon="6.6186">
        <ele>1224</ele>
        <time>2022-01-30T08:43:00Z</time>
      </trkpt>
      <trkpt lat="46.16391" lon="6.61851">
        <ele>1233</ele>
        <time>2022-01-30T08:43:33Z</time>
      </trkpt>
      <trkpt lat="46.16403" lon="6.61853">
        <ele>1233</ele>
        <time>2022-01-30T08:43:48Z</time>
      </trkpt>
      <trkpt lat="46.16429" lon="6.61845">
        <ele>1233</ele>
        <time>2022-01-30T08:44:20Z</time>
      </trkpt>
      <trkpt lat="46.16455" lon="6.61836">
        <ele>1232</ele>
        <time>2022-01-30T08:44:50Z</time>
      </trkpt>
      <trkpt lat="46.16482" lon="6.61822">
        <ele>1234</ele>
        <time>2022-01-30T08:45:22Z</time>
      </trkpt>
      <trkpt lat="46.16486" lon="6.61819">
        <ele>1234</ele>
        <time>2022-01-30T08:45:28Z</time>
      </trkpt>
      <trkpt lat="46.1649" lon="6.61818">
        <ele>1234</ele>
        <time>2022-01-30T08:45:32Z</time>
      </trkpt>
      <trkpt lat="46.16502" lon="6.61811">
        <ele>1237</ele>
        <time>2022-01-30T08:45:43Z</time>
      </trkpt>
      <trkpt lat="46.16514" lon="6.61803">
        <ele>1238</ele>
        <time>2022-01-30T08:45:56Z</time>
      </trkpt>
      <trkpt lat="46.16518" lon="6.61801">
        <ele>1238</ele>
        <time>2022-01-30T08:46:00Z</time>
      </trkpt>
      <trkpt lat="46.16524" lon="6.61801">
        <ele>1237</ele>
        <time>2022-01-30T08:46:07Z</time>
      </trkpt>
      <trkpt lat="46.1653" lon="6.61794">
        <ele>1237</ele>
        <time>2022-01-30T08:46:15Z</time>
      </trkpt>
      <trkpt lat="46.16543" lon="6.61778">
        <ele>1237</ele>
        <time>2022-01-30T08:46:26Z</time>
      </trkpt>
      <trkpt lat="46.16567" lon="6.61771">
        <ele>1236</ele>
        <time>2022-01-30T08:46:47Z</time>
      </trkpt>
      <trkpt lat="46.166" lon="6.61757">
        <ele>1241</ele>
        <time>2022-01-30T08:47:17Z</time>
      </trkpt>
      <trkpt lat="46.16629" lon="6.61739">
        <ele>1242</ele>
        <time>2022-01-30T08:47:44Z</time>
      </trkpt>
      <trkpt lat="46.16638" lon="6.61733">
        <ele>1248</ele>
        <time>2022-01-30T08:51:18Z</time>
      </trkpt>
      <trkpt lat="46.16641" lon="6.61732">
        <ele>1250</ele>
        <time>2022-01-30T08:51:23Z</time>
      </trkpt>
      <trkpt lat="46.16649" lon="6.61731">
        <ele>1252</ele>
        <time>2022-01-30T08:51:31Z</time>
      </trkpt>
      <trkpt lat="46.16653" lon="6.61731">
        <ele>1253</ele>
        <time>2022-01-30T08:51:35Z</time>
      </trkpt>
      <trkpt lat="46.16659" lon="6.61723">
        <ele>1256</ele>
        <time>2022-01-30T08:51:45Z</time>
      </trkpt>
      <trkpt lat="46.16667" lon="6.61717">
        <ele>1261</ele>
        <time>2022-01-30T08:51:55Z</time>
      </trkpt>
      <trkpt lat="46.16693" lon="6.61706">
        <ele>1267</ele>
        <time>2022-01-30T08:52:28Z</time>
      </trkpt>
      <trkpt lat="46.16698" lon="6.61702">
        <ele>1267</ele>
        <time>2022-01-30T08:52:34Z</time>
      </trkpt>
      <trkpt lat="46.16708" lon="6.61694">
        <ele>1265</ele>
        <time>2022-01-30T08:52:44Z</time>
      </trkpt>
      <trkpt lat="46.16718" lon="6.61692">
        <ele>1263</ele>
        <time>2022-01-30T08:52:57Z</time>
      </trkpt>
      <trkpt lat="46.1673" lon="6.61684">
        <ele>1265</ele>
        <time>2022-01-30T08:53:14Z</time>
      </trkpt>
      <trkpt lat="46.1675" lon="6.61683">
        <ele>1267</ele>
        <time>2022-01-30T08:53:41Z</time>
      </trkpt>
      <trkpt lat="46.16754" lon="6.61678">
        <ele>1268</ele>
        <time>2022-01-30T08:53:48Z</time>
      </trkpt>
      <trkpt lat="46.1678" lon="6.61674">
        <ele>1270</ele>
        <time>2022-01-30T08:54:25Z</time>
      </trkpt>
      <trkpt lat="46.16786" lon="6.61673">
        <ele>1271</ele>
        <time>2022-01-30T08:54:33Z</time>
      </trkpt>
      <trkpt lat="46.16792" lon="6.61675">
        <ele>1271</ele>
        <time>2022-01-30T08:54:41Z</time>
      </trkpt>
      <trkpt lat="46.16816" lon="6.61675">
        <ele>1268</ele>
        <time>2022-01-30T08:55:14Z</time>
      </trkpt>
      <trkpt lat="46.1682" lon="6.61673">
        <ele>1268</ele>
        <time>2022-01-30T08:55:18Z</time>
      </trkpt>
      <trkpt lat="46.16826" lon="6.61672">
        <ele>1266</ele>
        <time>2022-01-30T08:55:26Z</time>
      </trkpt>
      <trkpt lat="46.16849" lon="6.61669">
        <ele>1266</ele>
        <time>2022-01-30T08:55:57Z</time>
      </trkpt>
      <trkpt lat="46.16872" lon="6.61668">
        <ele>1269</ele>
        <time>2022-01-30T08:56:29Z</time>
      </trkpt>
      <trkpt lat="46.16876" lon="6.61667">
        <ele>1269</ele>
        <time>2022-01-30T08:56:34Z</time>
      </trkpt>
      <trkpt lat="46.16901" lon="6.61659">
        <ele>1275</ele>
        <time>2022-01-30T08:57:08Z</time>
      </trkpt>
      <trkpt lat="46.16923" lon="6.61666">
        <ele>1277</ele>
        <time>2022-01-30T08:57:40Z</time>
      </trkpt>
      <trkpt lat="46.16934" lon="6.61672">
        <ele>1276</ele>
        <time>2022-01-30T08:57:54Z</time>
      </trkpt>
      <trkpt lat="46.16937" lon="6.61672">
        <ele>1277</ele>
        <time>2022-01-30T08:58:15Z</time>
      </trkpt>
      <trkpt lat="46.16941" lon="6.61674">
        <ele>1277</ele>
        <time>2022-01-30T08:58:21Z</time>
      </trkpt>
      <trkpt lat="46.16945" lon="6.61676">
        <ele>1277</ele>
        <time>2022-01-30T08:58:26Z</time>
      </trkpt>
      <trkpt lat="46.16949" lon="6.61679">
        <ele>1278</ele>
        <time>2022-01-30T08:58:32Z</time>
      </trkpt>
      <trkpt lat="46.16953" lon="6.61683">
        <ele>1278</ele>
        <time>2022-01-30T08:58:37Z</time>
      </trkpt>
      <trkpt lat="46.16977" lon="6.61692">
        <ele>1279</ele>
        <time>2022-01-30T08:59:08Z</time>
      </trkpt>
      <trkpt lat="46.17" lon="6.61703">
        <ele>1282</ele>
        <time>2022-01-30T08:59:40Z</time>
      </trkpt>
      <trkpt lat="46.17024" lon="6.61715">
        <ele>1283</ele>
        <time>2022-01-30T09:00:13Z</time>
      </trkpt>
      <trkpt lat="46.17031" lon="6.61719">
        <ele>1284</ele>
        <time>2022-01-30T09:00:24Z</time>
      </trkpt>
      <trkpt lat="46.17044" lon="6.61723">
        <ele>1285</ele>
        <time>2022-01-30T09:00:41Z</time>
      </trkpt>
      <trkpt lat="46.17047" lon="6.61725">
        <ele>1286</ele>
        <time>2022-01-30T09:00:46Z</time>
      </trkpt>
      <trkpt lat="46.17067" lon="6.61735">
        <ele>1287</ele>
        <time>2022-01-30T09:01:16Z</time>
      </trkpt>
      <trkpt lat="46.17084" lon="6.61745">
        <ele>1290</ele>
        <time>2022-01-30T09:01:42Z</time>
      </trkpt>
      <trkpt lat="46.17087" lon="6.61747">
        <ele>1291</ele>
        <time>2022-01-30T09:01:48Z</time>
      </trkpt>
      <trkpt lat="46.17093" lon="6.61748">
        <ele>1294</ele>
        <time>2022-01-30T09:02:12Z</time>
      </trkpt>
      <trkpt lat="46.17096" lon="6.61748">
        <ele>1293</ele>
        <time>2022-01-30T09:02:16Z</time>
      </trkpt>
      <trkpt lat="46.1711" lon="6.61748">
        <ele>1291</ele>
        <time>2022-01-30T09:02:34Z</time>
      </trkpt>
      <trkpt lat="46.17122" lon="6.6174">
        <ele>1293</ele>
        <time>2022-01-30T09:02:51Z</time>
      </trkpt>
      <trkpt lat="46.17128" lon="6.61735">
        <ele>1296</ele>
        <time>2022-01-30T09:03:01Z</time>
      </trkpt>
      <trkpt lat="46.17134" lon="6.61731">
        <ele>1298</ele>
        <time>2022-01-30T09:03:10Z</time>
      </trkpt>
      <trkpt lat="46.17152" lon="6.6172">
        <ele>1306</ele>
        <time>2022-01-30T09:03:34Z</time>
      </trkpt>
      <trkpt lat="46.17156" lon="6.61717">
        <ele>1306</ele>
        <time>2022-01-30T09:03:40Z</time>
      </trkpt>
      <trkpt lat="46.17166" lon="6.61711">
        <ele>1304</ele>
        <time>2022-01-30T09:03:55Z</time>
      </trkpt>
      <trkpt lat="46.17171" lon="6.6171">
        <ele>1306</ele>
        <time>2022-01-30T09:04:00Z</time>
      </trkpt>
      <trkpt lat="46.17176" lon="6.61708">
        <ele>1308</ele>
        <time>2022-01-30T09:04:06Z</time>
      </trkpt>
      <trkpt lat="46.17181" lon="6.61705">
        <ele>1310</ele>
        <time>2022-01-30T09:04:14Z</time>
      </trkpt>
      <trkpt lat="46.17188" lon="6.61705">
        <ele>1314</ele>
        <time>2022-01-30T09:04:23Z</time>
      </trkpt>
      <trkpt lat="46.17194" lon="6.61702">
        <ele>1317</ele>
        <time>2022-01-30T09:04:31Z</time>
      </trkpt>
      <trkpt lat="46.17199" lon="6.61695">
        <ele>1318</ele>
        <time>2022-01-30T09:04:39Z</time>
      </trkpt>
      <trkpt lat="46.17196" lon="6.61688">
        <ele>1319</ele>
        <time>2022-01-30T09:04:47Z</time>
      </trkpt>
      <trkpt lat="46.17194" lon="6.61683">
        <ele>1318</ele>
        <time>2022-01-30T09:04:52Z</time>
      </trkpt>
      <trkpt lat="46.17191" lon="6.61679">
        <ele>1315</ele>
        <time>2022-01-30T09:04:58Z</time>
      </trkpt>
      <trkpt lat="46.17186" lon="6.61679">
        <ele>1314</ele>
        <time>2022-01-30T09:05:05Z</time>
      </trkpt>
      <trkpt lat="46.17182" lon="6.6168">
        <ele>1311</ele>
        <time>2022-01-30T09:05:14Z</time>
      </trkpt>
      <trkpt lat="46.17176" lon="6.61684">
        <ele>1310</ele>
        <time>2022-01-30T09:05:24Z</time>
      </trkpt>
      <trkpt lat="46.17149" lon="6.61685">
        <ele>1308</ele>
        <time>2022-01-30T09:05:58Z</time>
      </trkpt>
      <trkpt lat="46.17143" lon="6.61684">
        <ele>1308</ele>
        <time>2022-01-30T09:06:06Z</time>
      </trkpt>
      <trkpt lat="46.1714" lon="6.61682">
        <ele>1309</ele>
        <time>2022-01-30T09:06:11Z</time>
      </trkpt>
      <trkpt lat="46.17136" lon="6.61679">
        <ele>1309</ele>
        <time>2022-01-30T09:06:16Z</time>
      </trkpt>
      <trkpt lat="46.17127" lon="6.61674">
        <ele>1310</ele>
        <time>2022-01-30T09:06:28Z</time>
      </trkpt>
      <trkpt lat="46.17124" lon="6.61671">
        <ele>1312</ele>
        <time>2022-01-30T09:06:34Z</time>
      </trkpt>
      <trkpt lat="46.17102" lon="6.61649">
        <ele>1316</ele>
        <time>2022-01-30T09:07:06Z</time>
      </trkpt>
      <trkpt lat="46.17095" lon="6.61638">
        <ele>1316</ele>
        <time>2022-01-30T09:07:18Z</time>
      </trkpt>
      <trkpt lat="46.17087" lon="6.61621">
        <ele>1318</ele>
        <time>2022-01-30T09:07:36Z</time>
      </trkpt>
      <trkpt lat="46.17083" lon="6.61602">
        <ele>1320</ele>
        <time>2022-01-30T09:07:53Z</time>
      </trkpt>
      <trkpt lat="46.17083" lon="6.61598">
        <ele>1321</ele>
        <time>2022-01-30T09:07:56Z</time>
      </trkpt>
      <trkpt lat="46.17083" lon="6.61599">
        <ele>1319</ele>
        <time>2022-01-30T09:12:33Z</time>
      </trkpt>
      <trkpt lat="46.17086" lon="6.61603">
        <ele>1319</ele>
        <time>2022-01-30T09:12:36Z</time>
      </trkpt>
      <trkpt lat="46.17088" lon="6.61601">
        <ele>1315</ele>
        <time>2022-01-30T09:13:37Z</time>
      </trkpt>
      <trkpt lat="46.17084" lon="6.61599">
        <ele>1315</ele>
        <time>2022-01-30T09:13:43Z</time>
      </trkpt>
      <trkpt lat="46.17081" lon="6.61596">
        <ele>1317</ele>
        <time>2022-01-30T09:13:46Z</time>
      </trkpt>
      <trkpt lat="46.17077" lon="6.61582">
        <ele>1320</ele>
        <time>2022-01-30T09:13:57Z</time>
      </trkpt>
      <trkpt lat="46.17075" lon="6.61577">
        <ele>1321</ele>
        <time>2022-01-30T09:14:01Z</time>
      </trkpt>
      <trkpt lat="46.1707" lon="6.61568">
        <ele>1323</ele>
        <time>2022-01-30T09:14:11Z</time>
      </trkpt>
      <trkpt lat="46.17067" lon="6.61562">
        <ele>1323</ele>
        <time>2022-01-30T09:14:17Z</time>
      </trkpt>
      <trkpt lat="46.17054" lon="6.61546">
        <ele>1326</ele>
        <time>2022-01-30T09:14:34Z</time>
      </trkpt>
      <trkpt lat="46.17051" lon="6.61543">
        <ele>1326</ele>
        <time>2022-01-30T09:14:38Z</time>
      </trkpt>
      <trkpt lat="46.17049" lon="6.61539">
        <ele>1328</ele>
        <time>2022-01-30T09:14:42Z</time>
      </trkpt>
      <trkpt lat="46.17046" lon="6.61534">
        <ele>1328</ele>
        <time>2022-01-30T09:14:47Z</time>
      </trkpt>
      <trkpt lat="46.17045" lon="6.61528">
        <ele>1328</ele>
        <time>2022-01-30T09:14:52Z</time>
      </trkpt>
      <trkpt lat="46.17045" lon="6.61523">
        <ele>1328</ele>
        <time>2022-01-30T09:14:57Z</time>
      </trkpt>
      <trkpt lat="46.17049" lon="6.61515">
        <ele>1328</ele>
        <time>2022-01-30T09:15:03Z</time>
      </trkpt>
      <trkpt lat="46.17051" lon="6.61513">
        <ele>1327</ele>
        <time>2022-01-30T09:15:06Z</time>
      </trkpt>
      <trkpt lat="46.17061" lon="6.61522">
        <ele>1327</ele>
        <time>2022-01-30T09:15:24Z</time>
      </trkpt>
      <trkpt lat="46.17078" lon="6.61539">
        <ele>1329</ele>
        <time>2022-01-30T09:15:45Z</time>
      </trkpt>
      <trkpt lat="46.17082" lon="6.61543">
        <ele>1329</ele>
        <time>2022-01-30T09:15:52Z</time>
      </trkpt>
      <trkpt lat="46.17087" lon="6.61545">
        <ele>1330</ele>
        <time>2022-01-30T09:16:49Z</time>
      </trkpt>
      <trkpt lat="46.17095" lon="6.61552">
        <ele>1329</ele>
        <time>2022-01-30T09:16:58Z</time>
      </trkpt>
      <trkpt lat="46.17099" lon="6.61553">
        <ele>1331</ele>
        <time>2022-01-30T09:17:05Z</time>
      </trkpt>
      <trkpt lat="46.17103" lon="6.61559">
        <ele>1332</ele>
        <time>2022-01-30T09:17:15Z</time>
      </trkpt>
      <trkpt lat="46.17109" lon="6.61561">
        <ele>1333</ele>
        <time>2022-01-30T09:17:22Z</time>
      </trkpt>
      <trkpt lat="46.17115" lon="6.61564">
        <ele>1333</ele>
        <time>2022-01-30T09:17:32Z</time>
      </trkpt>
      <trkpt lat="46.17138" lon="6.61573">
        <ele>1337</ele>
        <time>2022-01-30T09:18:02Z</time>
      </trkpt>
      <trkpt lat="46.17151" lon="6.61577">
        <ele>1338</ele>
        <time>2022-01-30T09:18:23Z</time>
      </trkpt>
      <trkpt lat="46.17163" lon="6.61577">
        <ele>1338</ele>
        <time>2022-01-30T09:18:39Z</time>
      </trkpt>
      <trkpt lat="46.17168" lon="6.61579">
        <ele>1339</ele>
        <time>2022-01-30T09:18:45Z</time>
      </trkpt>
      <trkpt lat="46.17172" lon="6.61579">
        <ele>1340</ele>
        <time>2022-01-30T09:18:53Z</time>
      </trkpt>
      <trkpt lat="46.17191" lon="6.61569">
        <ele>1339</ele>
        <time>2022-01-30T09:19:20Z</time>
      </trkpt>
      <trkpt lat="46.17193" lon="6.61564">
        <ele>1339</ele>
        <time>2022-01-30T09:19:25Z</time>
      </trkpt>
      <trkpt lat="46.17196" lon="6.61555">
        <ele>1341</ele>
        <time>2022-01-30T09:19:33Z</time>
      </trkpt>
      <trkpt lat="46.17202" lon="6.61545">
        <ele>1343</ele>
        <time>2022-01-30T09:19:44Z</time>
      </trkpt>
      <trkpt lat="46.17214" lon="6.6152">
        <ele>1350</ele>
        <time>2022-01-30T09:20:15Z</time>
      </trkpt>
      <trkpt lat="46.17228" lon="6.61493">
        <ele>1353</ele>
        <time>2022-01-30T09:20:45Z</time>
      </trkpt>
      <trkpt lat="46.17242" lon="6.61457">
        <ele>1355</ele>
        <time>2022-01-30T09:21:20Z</time>
      </trkpt>
      <trkpt lat="46.17256" lon="6.61421">
        <ele>1357</ele>
        <time>2022-01-30T09:21:51Z</time>
      </trkpt>
      <trkpt lat="46.17259" lon="6.61412">
        <ele>1358</ele>
        <time>2022-01-30T09:22:00Z</time>
      </trkpt>
      <trkpt lat="46.17262" lon="6.61408">
        <ele>1359</ele>
        <time>2022-01-30T09:22:05Z</time>
      </trkpt>
      <trkpt lat="46.17266" lon="6.61398">
        <ele>1359</ele>
        <time>2022-01-30T09:22:15Z</time>
      </trkpt>
      <trkpt lat="46.17269" lon="6.61395">
        <ele>1359</ele>
        <time>2022-01-30T09:22:19Z</time>
      </trkpt>
      <trkpt lat="46.17276" lon="6.61381">
        <ele>1360</ele>
        <time>2022-01-30T09:22:33Z</time>
      </trkpt>
      <trkpt lat="46.17278" lon="6.61376">
        <ele>1360</ele>
        <time>2022-01-30T09:22:37Z</time>
      </trkpt>
      <trkpt lat="46.17283" lon="6.61369">
        <ele>1360</ele>
        <time>2022-01-30T09:22:44Z</time>
      </trkpt>
      <trkpt lat="46.17285" lon="6.61364">
        <ele>1361</ele>
        <time>2022-01-30T09:22:48Z</time>
      </trkpt>
      <trkpt lat="46.1731" lon="6.61321">
        <ele>1360</ele>
        <time>2022-01-30T09:23:19Z</time>
      </trkpt>
      <trkpt lat="46.17316" lon="6.61312">
        <ele>1360</ele>
        <time>2022-01-30T09:23:25Z</time>
      </trkpt>
      <trkpt lat="46.17322" lon="6.61302">
        <ele>1358</ele>
        <time>2022-01-30T09:23:32Z</time>
      </trkpt>
      <trkpt lat="46.1734" lon="6.61267">
        <ele>1359</ele>
        <time>2022-01-30T09:23:57Z</time>
      </trkpt>
      <trkpt lat="46.17344" lon="6.61257">
        <ele>1359</ele>
        <time>2022-01-30T09:24:03Z</time>
      </trkpt>
      <trkpt lat="46.17349" lon="6.61223">
        <ele>1361</ele>
        <time>2022-01-30T09:24:32Z</time>
      </trkpt>
      <trkpt lat="46.17349" lon="6.61217">
        <ele>1361</ele>
        <time>2022-01-30T09:24:38Z</time>
      </trkpt>
      <trkpt lat="46.17347" lon="6.61204">
        <ele>1361</ele>
        <time>2022-01-30T09:24:50Z</time>
      </trkpt>
      <trkpt lat="46.17347" lon="6.61193">
        <ele>1363</ele>
        <time>2022-01-30T09:24:59Z</time>
      </trkpt>
      <trkpt lat="46.17347" lon="6.61186">
        <ele>1364</ele>
        <time>2022-01-30T09:25:04Z</time>
      </trkpt>
      <trkpt lat="46.17349" lon="6.61181">
        <ele>1365</ele>
        <time>2022-01-30T09:25:08Z</time>
      </trkpt>
      <trkpt lat="46.17355" lon="6.61164">
        <ele>1367</ele>
        <time>2022-01-30T09:25:25Z</time>
      </trkpt>
      <trkpt lat="46.17359" lon="6.6116">
        <ele>1366</ele>
        <time>2022-01-30T09:25:30Z</time>
      </trkpt>
      <trkpt lat="46.17363" lon="6.61162">
        <ele>1364</ele>
        <time>2022-01-30T09:25:36Z</time>
      </trkpt>
      <trkpt lat="46.17369" lon="6.61154">
        <ele>1364</ele>
        <time>2022-01-30T09:26:01Z</time>
      </trkpt>
      <trkpt lat="46.17371" lon="6.61151">
        <ele>1365</ele>
        <time>2022-01-30T09:26:04Z</time>
      </trkpt>
      <trkpt lat="46.17371" lon="6.61146">
        <ele>1364</ele>
        <time>2022-01-30T09:26:51Z</time>
      </trkpt>
      <trkpt lat="46.17377" lon="6.61139">
        <ele>1362</ele>
        <time>2022-01-30T09:27:19Z</time>
      </trkpt>
      <trkpt lat="46.17379" lon="6.61133">
        <ele>1362</ele>
        <time>2022-01-30T09:27:54Z</time>
      </trkpt>
      <trkpt lat="46.17382" lon="6.61128">
        <ele>1363</ele>
        <time>2022-01-30T09:28:23Z</time>
      </trkpt>
      <trkpt lat="46.17383" lon="6.61122">
        <ele>1362</ele>
        <time>2022-01-30T09:28:27Z</time>
      </trkpt>
      <trkpt lat="46.17383" lon="6.61099">
        <ele>1366</ele>
        <time>2022-01-30T09:28:49Z</time>
      </trkpt>
      <trkpt lat="46.17381" lon="6.61093">
        <ele>1367</ele>
        <time>2022-01-30T09:28:54Z</time>
      </trkpt>
      <trkpt lat="46.17381" lon="6.61087">
        <ele>1368</ele>
        <time>2022-01-30T09:28:59Z</time>
      </trkpt>
      <trkpt lat="46.17384" lon="6.61065">
        <ele>1370</ele>
        <time>2022-01-30T09:29:19Z</time>
      </trkpt>
      <trkpt lat="46.1739" lon="6.61048">
        <ele>1373</ele>
        <time>2022-01-30T09:29:36Z</time>
      </trkpt>
      <trkpt lat="46.17391" lon="6.61042">
        <ele>1374</ele>
        <time>2022-01-30T09:29:41Z</time>
      </trkpt>
      <trkpt lat="46.17393" lon="6.61032">
        <ele>1376</ele>
        <time>2022-01-30T09:29:51Z</time>
      </trkpt>
      <trkpt lat="46.17398" lon="6.61019">
        <ele>1377</ele>
        <time>2022-01-30T09:30:04Z</time>
      </trkpt>
      <trkpt lat="46.17399" lon="6.61012">
        <ele>1378</ele>
        <time>2022-01-30T09:30:09Z</time>
      </trkpt>
      <trkpt lat="46.174" lon="6.61006">
        <ele>1379</ele>
        <time>2022-01-30T09:30:14Z</time>
      </trkpt>
      <trkpt lat="46.1741" lon="6.60987">
        <ele>1380</ele>
        <time>2022-01-30T09:30:38Z</time>
      </trkpt>
      <trkpt lat="46.17411" lon="6.6098">
        <ele>1380</ele>
        <time>2022-01-30T09:30:43Z</time>
      </trkpt>
      <trkpt lat="46.17412" lon="6.60973">
        <ele>1380</ele>
        <time>2022-01-30T09:30:47Z</time>
      </trkpt>
      <trkpt lat="46.17413" lon="6.60967">
        <ele>1379</ele>
        <time>2022-01-30T09:30:52Z</time>
      </trkpt>
      <trkpt lat="46.17416" lon="6.60963">
        <ele>1379</ele>
        <time>2022-01-30T09:30:59Z</time>
      </trkpt>
      <trkpt lat="46.17422" lon="6.60953">
        <ele>1380</ele>
        <time>2022-01-30T09:31:13Z</time>
      </trkpt>
      <trkpt lat="46.17426" lon="6.60931">
        <ele>1380</ele>
        <time>2022-01-30T09:31:38Z</time>
      </trkpt>
      <trkpt lat="46.17428" lon="6.60925">
        <ele>1380</ele>
        <time>2022-01-30T09:31:49Z</time>
      </trkpt>
      <trkpt lat="46.1743" lon="6.60919">
        <ele>1381</ele>
        <time>2022-01-30T09:31:57Z</time>
      </trkpt>
      <trkpt lat="46.17433" lon="6.60915">
        <ele>1379</ele>
        <time>2022-01-30T09:32:08Z</time>
      </trkpt>
      <trkpt lat="46.17435" lon="6.60909">
        <ele>1379</ele>
        <time>2022-01-30T09:32:15Z</time>
      </trkpt>
      <trkpt lat="46.17437" lon="6.60906">
        <ele>1378</ele>
        <time>2022-01-30T09:32:46Z</time>
      </trkpt>
      <trkpt lat="46.17439" lon="6.60899">
        <ele>1378</ele>
        <time>2022-01-30T09:33:07Z</time>
      </trkpt>
      <trkpt lat="46.17444" lon="6.60892">
        <ele>1378</ele>
        <time>2022-01-30T09:33:15Z</time>
      </trkpt>
      <trkpt lat="46.1745" lon="6.60872">
        <ele>1379</ele>
        <time>2022-01-30T09:33:37Z</time>
      </trkpt>
      <trkpt lat="46.17453" lon="6.60872">
        <ele>1379</ele>
        <time>2022-01-30T09:33:48Z</time>
      </trkpt>
      <trkpt lat="46.1746" lon="6.60859">
        <ele>1378</ele>
        <time>2022-01-30T09:34:03Z</time>
      </trkpt>
      <trkpt lat="46.17462" lon="6.60854">
        <ele>1379</ele>
        <time>2022-01-30T09:34:09Z</time>
      </trkpt>
      <trkpt lat="46.17468" lon="6.60833">
        <ele>1382</ele>
        <time>2022-01-30T09:34:39Z</time>
      </trkpt>
      <trkpt lat="46.17472" lon="6.60823">
        <ele>1384</ele>
        <time>2022-01-30T09:34:51Z</time>
      </trkpt>
      <trkpt lat="46.17474" lon="6.60807">
        <ele>1385</ele>
        <time>2022-01-30T09:35:14Z</time>
      </trkpt>
      <trkpt lat="46.17477" lon="6.60796">
        <ele>1387</ele>
        <time>2022-01-30T09:35:25Z</time>
      </trkpt>
      <trkpt lat="46.17479" lon="6.60789">
        <ele>1390</ele>
        <time>2022-01-30T09:35:39Z</time>
      </trkpt>
      <trkpt lat="46.1748" lon="6.60782">
        <ele>1392</ele>
        <time>2022-01-30T09:35:47Z</time>
      </trkpt>
      <trkpt lat="46.17481" lon="6.60777">
        <ele>1392</ele>
        <time>2022-01-30T09:35:52Z</time>
      </trkpt>
      <trkpt lat="46.1748" lon="6.60765">
        <ele>1391</ele>
        <time>2022-01-30T09:36:05Z</time>
      </trkpt>
      <trkpt lat="46.1748" lon="6.6076">
        <ele>1391</ele>
        <time>2022-01-30T09:36:10Z</time>
      </trkpt>
      <trkpt lat="46.17481" lon="6.60754">
        <ele>1390</ele>
        <time>2022-01-30T09:36:15Z</time>
      </trkpt>
      <trkpt lat="46.17486" lon="6.60732">
        <ele>1390</ele>
        <time>2022-01-30T09:36:42Z</time>
      </trkpt>
      <trkpt lat="46.17488" lon="6.60727">
        <ele>1390</ele>
        <time>2022-01-30T09:36:48Z</time>
      </trkpt>
      <trkpt lat="46.17493" lon="6.60698">
        <ele>1396</ele>
        <time>2022-01-30T09:37:26Z</time>
      </trkpt>
      <trkpt lat="46.17497" lon="6.60686">
        <ele>1396</ele>
        <time>2022-01-30T09:37:40Z</time>
      </trkpt>
      <trkpt lat="46.17501" lon="6.60661">
        <ele>1398</ele>
        <time>2022-01-30T09:38:05Z</time>
      </trkpt>
      <trkpt lat="46.17503" lon="6.60657">
        <ele>1400</ele>
        <time>2022-01-30T09:38:11Z</time>
      </trkpt>
      <trkpt lat="46.17506" lon="6.60653">
        <ele>1400</ele>
        <time>2022-01-30T09:38:17Z</time>
      </trkpt>
      <trkpt lat="46.17509" lon="6.6065">
        <ele>1401</ele>
        <time>2022-01-30T09:38:23Z</time>
      </trkpt>
      <trkpt lat="46.17512" lon="6.60645">
        <ele>1402</ele>
        <time>2022-01-30T09:38:31Z</time>
      </trkpt>
      <trkpt lat="46.17514" lon="6.60638">
        <ele>1401</ele>
        <time>2022-01-30T09:38:39Z</time>
      </trkpt>
      <trkpt lat="46.17515" lon="6.60633">
        <ele>1401</ele>
        <time>2022-01-30T09:38:44Z</time>
      </trkpt>
      <trkpt lat="46.17516" lon="6.60622">
        <ele>1402</ele>
        <time>2022-01-30T09:38:54Z</time>
      </trkpt>
      <trkpt lat="46.17523" lon="6.6059">
        <ele>1404</ele>
        <time>2022-01-30T09:39:27Z</time>
      </trkpt>
      <trkpt lat="46.17525" lon="6.60579">
        <ele>1404</ele>
        <time>2022-01-30T09:39:39Z</time>
      </trkpt>
      <trkpt lat="46.17532" lon="6.60557">
        <ele>1404</ele>
        <time>2022-01-30T09:40:02Z</time>
      </trkpt>
      <trkpt lat="46.17536" lon="6.60551">
        <ele>1405</ele>
        <time>2022-01-30T09:40:10Z</time>
      </trkpt>
      <trkpt lat="46.1754" lon="6.6054">
        <ele>1406</ele>
        <time>2022-01-30T09:40:22Z</time>
      </trkpt>
      <trkpt lat="46.17544" lon="6.60536">
        <ele>1408</ele>
        <time>2022-01-30T09:40:31Z</time>
      </trkpt>
      <trkpt lat="46.17557" lon="6.60525">
        <ele>1413</ele>
        <time>2022-01-30T09:40:54Z</time>
      </trkpt>
      <trkpt lat="46.17559" lon="6.6052">
        <ele>1414</ele>
        <time>2022-01-30T09:41:00Z</time>
      </trkpt>
      <trkpt lat="46.17566" lon="6.60513">
        <ele>1415</ele>
        <time>2022-01-30T09:41:15Z</time>
      </trkpt>
      <trkpt lat="46.17571" lon="6.60512">
        <ele>1417</ele>
        <time>2022-01-30T09:41:23Z</time>
      </trkpt>
      <trkpt lat="46.17575" lon="6.6051">
        <ele>1419</ele>
        <time>2022-01-30T09:41:28Z</time>
      </trkpt>
      <trkpt lat="46.17578" lon="6.60506">
        <ele>1419</ele>
        <time>2022-01-30T09:41:34Z</time>
      </trkpt>
      <trkpt lat="46.17585" lon="6.60502">
        <ele>1420</ele>
        <time>2022-01-30T09:41:43Z</time>
      </trkpt>
      <trkpt lat="46.17589" lon="6.605">
        <ele>1419</ele>
        <time>2022-01-30T09:41:48Z</time>
      </trkpt>
      <trkpt lat="46.17594" lon="6.60499">
        <ele>1420</ele>
        <time>2022-01-30T09:41:53Z</time>
      </trkpt>
      <trkpt lat="46.17598" lon="6.60497">
        <ele>1420</ele>
        <time>2022-01-30T09:41:58Z</time>
      </trkpt>
      <trkpt lat="46.17601" lon="6.60494">
        <ele>1420</ele>
        <time>2022-01-30T09:42:04Z</time>
      </trkpt>
      <trkpt lat="46.17605" lon="6.60483">
        <ele>1420</ele>
        <time>2022-01-30T09:42:15Z</time>
      </trkpt>
      <trkpt lat="46.17608" lon="6.6048">
        <ele>1421</ele>
        <time>2022-01-30T09:42:21Z</time>
      </trkpt>
      <trkpt lat="46.17608" lon="6.60472">
        <ele>1421</ele>
        <time>2022-01-30T09:42:27Z</time>
      </trkpt>
      <trkpt lat="46.17609" lon="6.60467">
        <ele>1421</ele>
        <time>2022-01-30T09:42:32Z</time>
      </trkpt>
      <trkpt lat="46.17612" lon="6.6045">
        <ele>1422</ele>
        <time>2022-01-30T09:42:47Z</time>
      </trkpt>
      <trkpt lat="46.17612" lon="6.60444">
        <ele>1423</ele>
        <time>2022-01-30T09:42:57Z</time>
      </trkpt>
      <trkpt lat="46.17613" lon="6.60439">
        <ele>1426</ele>
        <time>2022-01-30T09:49:08Z</time>
      </trkpt>
      <trkpt lat="46.17617" lon="6.60422">
        <ele>1427</ele>
        <time>2022-01-30T09:49:31Z</time>
      </trkpt>
      <trkpt lat="46.1762" lon="6.60418">
        <ele>1428</ele>
        <time>2022-01-30T09:49:38Z</time>
      </trkpt>
      <trkpt lat="46.17621" lon="6.60412">
        <ele>1429</ele>
        <time>2022-01-30T09:49:47Z</time>
      </trkpt>
      <trkpt lat="46.17625" lon="6.60408">
        <ele>1430</ele>
        <time>2022-01-30T09:49:56Z</time>
      </trkpt>
      <trkpt lat="46.17629" lon="6.60408">
        <ele>1432</ele>
        <time>2022-01-30T09:50:06Z</time>
      </trkpt>
      <trkpt lat="46.17632" lon="6.60406">
        <ele>1435</ele>
        <time>2022-01-30T09:50:19Z</time>
      </trkpt>
      <trkpt lat="46.17635" lon="6.60395">
        <ele>1437</ele>
        <time>2022-01-30T09:50:32Z</time>
      </trkpt>
      <trkpt lat="46.17635" lon="6.60384">
        <ele>1439</ele>
        <time>2022-01-30T09:50:47Z</time>
      </trkpt>
      <trkpt lat="46.17638" lon="6.60375">
        <ele>1439</ele>
        <time>2022-01-30T09:51:01Z</time>
      </trkpt>
      <trkpt lat="46.1764" lon="6.60367">
        <ele>1439</ele>
        <time>2022-01-30T09:51:13Z</time>
      </trkpt>
      <trkpt lat="46.17644" lon="6.60366">
        <ele>1442</ele>
        <time>2022-01-30T09:51:25Z</time>
      </trkpt>
      <trkpt lat="46.17646" lon="6.60372">
        <ele>1443</ele>
        <time>2022-01-30T09:51:35Z</time>
      </trkpt>
      <trkpt lat="46.17651" lon="6.60373">
        <ele>1447</ele>
        <time>2022-01-30T09:51:45Z</time>
      </trkpt>
      <trkpt lat="46.17654" lon="6.6037">
        <ele>1449</ele>
        <time>2022-01-30T09:51:53Z</time>
      </trkpt>
      <trkpt lat="46.17656" lon="6.60366">
        <ele>1451</ele>
        <time>2022-01-30T09:52:00Z</time>
      </trkpt>
      <trkpt lat="46.17658" lon="6.6036">
        <ele>1451</ele>
        <time>2022-01-30T09:52:09Z</time>
      </trkpt>
      <trkpt lat="46.1766" lon="6.60353">
        <ele>1452</ele>
        <time>2022-01-30T09:52:18Z</time>
      </trkpt>
      <trkpt lat="46.17662" lon="6.60347">
        <ele>1453</ele>
        <time>2022-01-30T09:52:27Z</time>
      </trkpt>
      <trkpt lat="46.1767" lon="6.60329">
        <ele>1454</ele>
        <time>2022-01-30T09:53:02Z</time>
      </trkpt>
      <trkpt lat="46.17673" lon="6.60319">
        <ele>1458</ele>
        <time>2022-01-30T09:53:17Z</time>
      </trkpt>
      <trkpt lat="46.17674" lon="6.60308">
        <ele>1460</ele>
        <time>2022-01-30T09:53:32Z</time>
      </trkpt>
      <trkpt lat="46.17677" lon="6.60303">
        <ele>1462</ele>
        <time>2022-01-30T09:53:46Z</time>
      </trkpt>
      <trkpt lat="46.17677" lon="6.60297">
        <ele>1463</ele>
        <time>2022-01-30T09:53:55Z</time>
      </trkpt>
      <trkpt lat="46.1768" lon="6.60293">
        <ele>1464</ele>
        <time>2022-01-30T09:54:02Z</time>
      </trkpt>
      <trkpt lat="46.17682" lon="6.60283">
        <ele>1465</ele>
        <time>2022-01-30T09:54:18Z</time>
      </trkpt>
      <trkpt lat="46.17682" lon="6.60277">
        <ele>1466</ele>
        <time>2022-01-30T09:54:25Z</time>
      </trkpt>
      <trkpt lat="46.17681" lon="6.60256">
        <ele>1469</ele>
        <time>2022-01-30T09:55:00Z</time>
      </trkpt>
      <trkpt lat="46.17681" lon="6.60251">
        <ele>1470</ele>
        <time>2022-01-30T09:55:08Z</time>
      </trkpt>
      <trkpt lat="46.17682" lon="6.60243">
        <ele>1472</ele>
        <time>2022-01-30T09:55:18Z</time>
      </trkpt>
      <trkpt lat="46.1768" lon="6.60238">
        <ele>1474</ele>
        <time>2022-01-30T09:55:30Z</time>
      </trkpt>
      <trkpt lat="46.17679" lon="6.60232">
        <ele>1475</ele>
        <time>2022-01-30T09:55:39Z</time>
      </trkpt>
      <trkpt lat="46.17678" lon="6.60225">
        <ele>1477</ele>
        <time>2022-01-30T09:55:53Z</time>
      </trkpt>
      <trkpt lat="46.17679" lon="6.60218">
        <ele>1478</ele>
        <time>2022-01-30T09:56:02Z</time>
      </trkpt>
      <trkpt lat="46.17675" lon="6.60201">
        <ele>1482</ele>
        <time>2022-01-30T09:56:36Z</time>
      </trkpt>
      <trkpt lat="46.17674" lon="6.60195">
        <ele>1484</ele>
        <time>2022-01-30T09:56:44Z</time>
      </trkpt>
      <trkpt lat="46.17673" lon="6.6019">
        <ele>1485</ele>
        <time>2022-01-30T09:56:54Z</time>
      </trkpt>
      <trkpt lat="46.17674" lon="6.60185">
        <ele>1485</ele>
        <time>2022-01-30T09:56:58Z</time>
      </trkpt>
      <trkpt lat="46.17673" lon="6.60174">
        <ele>1488</ele>
        <time>2022-01-30T09:57:13Z</time>
      </trkpt>
      <trkpt lat="46.1767" lon="6.60169">
        <ele>1490</ele>
        <time>2022-01-30T09:57:21Z</time>
      </trkpt>
      <trkpt lat="46.17669" lon="6.60164">
        <ele>1490</ele>
        <time>2022-01-30T09:57:26Z</time>
      </trkpt>
      <trkpt lat="46.17671" lon="6.60162">
        <ele>1494</ele>
        <time>2022-01-30T09:57:55Z</time>
      </trkpt>
      <trkpt lat="46.17675" lon="6.60165">
        <ele>1494</ele>
        <time>2022-01-30T09:58:05Z</time>
      </trkpt>
      <trkpt lat="46.17679" lon="6.60169">
        <ele>1498</ele>
        <time>2022-01-30T09:58:18Z</time>
      </trkpt>
      <trkpt lat="46.17683" lon="6.60169">
        <ele>1499</ele>
        <time>2022-01-30T09:58:26Z</time>
      </trkpt>
      <trkpt lat="46.17692" lon="6.60167">
        <ele>1503</ele>
        <time>2022-01-30T09:58:47Z</time>
      </trkpt>
      <trkpt lat="46.17704" lon="6.60168">
        <ele>1507</ele>
        <time>2022-01-30T09:59:14Z</time>
      </trkpt>
      <trkpt lat="46.17707" lon="6.60165">
        <ele>1508</ele>
        <time>2022-01-30T09:59:23Z</time>
      </trkpt>
      <trkpt lat="46.17708" lon="6.60159">
        <ele>1509</ele>
        <time>2022-01-30T09:59:33Z</time>
      </trkpt>
      <trkpt lat="46.17708" lon="6.60153">
        <ele>1511</ele>
        <time>2022-01-30T09:59:44Z</time>
      </trkpt>
      <trkpt lat="46.17705" lon="6.60148">
        <ele>1510</ele>
        <time>2022-01-30T09:59:53Z</time>
      </trkpt>
      <trkpt lat="46.17705" lon="6.60143">
        <ele>1510</ele>
        <time>2022-01-30T10:00:18Z</time>
      </trkpt>
      <trkpt lat="46.17707" lon="6.60138">
        <ele>1510</ele>
        <time>2022-01-30T10:00:28Z</time>
      </trkpt>
      <trkpt lat="46.17706" lon="6.60132">
        <ele>1510</ele>
        <time>2022-01-30T10:00:35Z</time>
      </trkpt>
      <trkpt lat="46.17704" lon="6.60127">
        <ele>1511</ele>
        <time>2022-01-30T10:00:40Z</time>
      </trkpt>
      <trkpt lat="46.17701" lon="6.60121">
        <ele>1512</ele>
        <time>2022-01-30T10:00:50Z</time>
      </trkpt>
      <trkpt lat="46.17699" lon="6.60118">
        <ele>1512</ele>
        <time>2022-01-30T10:01:47Z</time>
      </trkpt>
      <trkpt lat="46.17697" lon="6.60113">
        <ele>1514</ele>
        <time>2022-01-30T10:02:36Z</time>
      </trkpt>
      <trkpt lat="46.17695" lon="6.60109">
        <ele>1514</ele>
        <time>2022-01-30T10:02:48Z</time>
      </trkpt>
      <trkpt lat="46.17694" lon="6.60105">
        <ele>1515</ele>
        <time>2022-01-30T10:02:56Z</time>
      </trkpt>
      <trkpt lat="46.17694" lon="6.60098">
        <ele>1516</ele>
        <time>2022-01-30T10:03:07Z</time>
      </trkpt>
      <trkpt lat="46.17697" lon="6.60087">
        <ele>1523</ele>
        <time>2022-01-30T10:03:34Z</time>
      </trkpt>
      <trkpt lat="46.177" lon="6.60082">
        <ele>1524</ele>
        <time>2022-01-30T10:03:59Z</time>
      </trkpt>
      <trkpt lat="46.17706" lon="6.60074">
        <ele>1527</ele>
        <time>2022-01-30T10:04:19Z</time>
      </trkpt>
      <trkpt lat="46.17709" lon="6.60071">
        <ele>1529</ele>
        <time>2022-01-30T10:04:29Z</time>
      </trkpt>
      <trkpt lat="46.17713" lon="6.60066">
        <ele>1529</ele>
        <time>2022-01-30T10:04:39Z</time>
      </trkpt>
      <trkpt lat="46.17714" lon="6.60061">
        <ele>1532</ele>
        <time>2022-01-30T10:04:47Z</time>
      </trkpt>
      <trkpt lat="46.17716" lon="6.60056">
        <ele>1533</ele>
        <time>2022-01-30T10:04:55Z</time>
      </trkpt>
      <trkpt lat="46.17717" lon="6.60052">
        <ele>1535</ele>
        <time>2022-01-30T10:05:11Z</time>
      </trkpt>
      <trkpt lat="46.17721" lon="6.60052">
        <ele>1535</ele>
        <time>2022-01-30T10:05:19Z</time>
      </trkpt>
      <trkpt lat="46.17725" lon="6.6005">
        <ele>1537</ele>
        <time>2022-01-30T10:05:32Z</time>
      </trkpt>
      <trkpt lat="46.17726" lon="6.60043">
        <ele>1538</ele>
        <time>2022-01-30T10:05:44Z</time>
      </trkpt>
      <trkpt lat="46.17729" lon="6.6004">
        <ele>1538</ele>
        <time>2022-01-30T10:05:55Z</time>
      </trkpt>
      <trkpt lat="46.17732" lon="6.60036">
        <ele>1540</ele>
        <time>2022-01-30T10:06:05Z</time>
      </trkpt>
      <trkpt lat="46.17734" lon="6.60032">
        <ele>1540</ele>
        <time>2022-01-30T10:06:13Z</time>
      </trkpt>
      <trkpt lat="46.17734" lon="6.60026">
        <ele>1541</ele>
        <time>2022-01-30T10:06:22Z</time>
      </trkpt>
      <trkpt lat="46.17735" lon="6.60021">
        <ele>1542</ele>
        <time>2022-01-30T10:06:31Z</time>
      </trkpt>
      <trkpt lat="46.17734" lon="6.60016">
        <ele>1543</ele>
        <time>2022-01-30T10:06:39Z</time>
      </trkpt>
      <trkpt lat="46.17733" lon="6.60009">
        <ele>1544</ele>
        <time>2022-01-30T10:06:49Z</time>
      </trkpt>
      <trkpt lat="46.17736" lon="6.60006">
        <ele>1545</ele>
        <time>2022-01-30T10:06:58Z</time>
      </trkpt>
      <trkpt lat="46.17739" lon="6.60002">
        <ele>1547</ele>
        <time>2022-01-30T10:07:04Z</time>
      </trkpt>
      <trkpt lat="46.17744" lon="6.60004">
        <ele>1549</ele>
        <time>2022-01-30T10:07:20Z</time>
      </trkpt>
      <trkpt lat="46.17749" lon="6.60005">
        <ele>1553</ele>
        <time>2022-01-30T10:07:28Z</time>
      </trkpt>
      <trkpt lat="46.17753" lon="6.60009">
        <ele>1556</ele>
        <time>2022-01-30T10:07:40Z</time>
      </trkpt>
      <trkpt lat="46.17759" lon="6.60012">
        <ele>1558</ele>
        <time>2022-01-30T10:07:54Z</time>
      </trkpt>
      <trkpt lat="46.17763" lon="6.60015">
        <ele>1560</ele>
        <time>2022-01-30T10:08:03Z</time>
      </trkpt>
      <trkpt lat="46.17766" lon="6.6002">
        <ele>1561</ele>
        <time>2022-01-30T10:08:14Z</time>
      </trkpt>
      <trkpt lat="46.17773" lon="6.60026">
        <ele>1564</ele>
        <time>2022-01-30T10:08:37Z</time>
      </trkpt>
      <trkpt lat="46.17778" lon="6.6003">
        <ele>1567</ele>
        <time>2022-01-30T10:08:49Z</time>
      </trkpt>
      <trkpt lat="46.17782" lon="6.60031">
        <ele>1567</ele>
        <time>2022-01-30T10:09:01Z</time>
      </trkpt>
      <trkpt lat="46.17798" lon="6.60031">
        <ele>1569</ele>
        <time>2022-01-30T10:09:30Z</time>
      </trkpt>
      <trkpt lat="46.17809" lon="6.60035">
        <ele>1573</ele>
        <time>2022-01-30T10:10:00Z</time>
      </trkpt>
      <trkpt lat="46.17814" lon="6.60035">
        <ele>1573</ele>
        <time>2022-01-30T10:10:11Z</time>
      </trkpt>
      <trkpt lat="46.17818" lon="6.60035">
        <ele>1575</ele>
        <time>2022-01-30T10:10:20Z</time>
      </trkpt>
      <trkpt lat="46.17821" lon="6.6003">
        <ele>1576</ele>
        <time>2022-01-30T10:10:31Z</time>
      </trkpt>
      <trkpt lat="46.17819" lon="6.60024">
        <ele>1577</ele>
        <time>2022-01-30T10:10:40Z</time>
      </trkpt>
      <trkpt lat="46.17817" lon="6.60018">
        <ele>1578</ele>
        <time>2022-01-30T10:10:54Z</time>
      </trkpt>
      <trkpt lat="46.17818" lon="6.60012">
        <ele>1578</ele>
        <time>2022-01-30T10:11:03Z</time>
      </trkpt>
      <trkpt lat="46.17827" lon="6.60005">
        <ele>1584</ele>
        <time>2022-01-30T10:11:28Z</time>
      </trkpt>
      <trkpt lat="46.17831" lon="6.60002">
        <ele>1584</ele>
        <time>2022-01-30T10:11:36Z</time>
      </trkpt>
      <trkpt lat="46.17831" lon="6.59996">
        <ele>1586</ele>
        <time>2022-01-30T10:11:50Z</time>
      </trkpt>
      <trkpt lat="46.17829" lon="6.59991">
        <ele>1587</ele>
        <time>2022-01-30T10:12:01Z</time>
      </trkpt>
      <trkpt lat="46.17826" lon="6.59988">
        <ele>1588</ele>
        <time>2022-01-30T10:12:11Z</time>
      </trkpt>
      <trkpt lat="46.17825" lon="6.59983">
        <ele>1588</ele>
        <time>2022-01-30T10:12:18Z</time>
      </trkpt>
      <trkpt lat="46.17823" lon="6.59979">
        <ele>1590</ele>
        <time>2022-01-30T10:12:24Z</time>
      </trkpt>
      <trkpt lat="46.17823" lon="6.59973">
        <ele>1590</ele>
        <time>2022-01-30T10:12:32Z</time>
      </trkpt>
      <trkpt lat="46.17827" lon="6.59971">
        <ele>1593</ele>
        <time>2022-01-30T10:12:43Z</time>
      </trkpt>
      <trkpt lat="46.17836" lon="6.59964">
        <ele>1598</ele>
        <time>2022-01-30T10:13:11Z</time>
      </trkpt>
      <trkpt lat="46.17838" lon="6.5996">
        <ele>1599</ele>
        <time>2022-01-30T10:13:17Z</time>
      </trkpt>
      <trkpt lat="46.17842" lon="6.59958">
        <ele>1599</ele>
        <time>2022-01-30T10:13:46Z</time>
      </trkpt>
      <trkpt lat="46.1785" lon="6.59953">
        <ele>1603</ele>
        <time>2022-01-30T10:14:01Z</time>
      </trkpt>
      <trkpt lat="46.17852" lon="6.5995">
        <ele>1604</ele>
        <time>2022-01-30T10:14:17Z</time>
      </trkpt>
      <trkpt lat="46.17848" lon="6.59948">
        <ele>1604</ele>
        <time>2022-01-30T10:14:26Z</time>
      </trkpt>
      <trkpt lat="46.17846" lon="6.59946">
        <ele>1605</ele>
        <time>2022-01-30T10:14:32Z</time>
      </trkpt>
      <trkpt lat="46.17843" lon="6.59937">
        <ele>1607</ele>
        <time>2022-01-30T10:14:46Z</time>
      </trkpt>
      <trkpt lat="46.17841" lon="6.59933">
        <ele>1608</ele>
        <time>2022-01-30T10:14:52Z</time>
      </trkpt>
      <trkpt lat="46.1784" lon="6.59929">
        <ele>1609</ele>
        <time>2022-01-30T10:14:58Z</time>
      </trkpt>
      <trkpt lat="46.17843" lon="6.59924">
        <ele>1610</ele>
        <time>2022-01-30T10:15:04Z</time>
      </trkpt>
      <trkpt lat="46.17844" lon="6.59919">
        <ele>1612</ele>
        <time>2022-01-30T10:15:11Z</time>
      </trkpt>
      <trkpt lat="46.17846" lon="6.59916">
        <ele>1614</ele>
        <time>2022-01-30T10:15:53Z</time>
      </trkpt>
      <trkpt lat="46.17855" lon="6.59904">
        <ele>1615</ele>
        <time>2022-01-30T10:16:32Z</time>
      </trkpt>
      <trkpt lat="46.17859" lon="6.59897">
        <ele>1618</ele>
        <time>2022-01-30T10:16:43Z</time>
      </trkpt>
      <trkpt lat="46.17861" lon="6.59893">
        <ele>1618</ele>
        <time>2022-01-30T10:16:53Z</time>
      </trkpt>
      <trkpt lat="46.17861" lon="6.59889">
        <ele>1619</ele>
        <time>2022-01-30T10:17:02Z</time>
      </trkpt>
      <trkpt lat="46.17864" lon="6.59884">
        <ele>1622</ele>
        <time>2022-01-30T10:17:06Z</time>
      </trkpt>
      <trkpt lat="46.17865" lon="6.59879">
        <ele>1623</ele>
        <time>2022-01-30T10:17:13Z</time>
      </trkpt>
      <trkpt lat="46.17868" lon="6.59874">
        <ele>1623</ele>
        <time>2022-01-30T10:17:26Z</time>
      </trkpt>
      <trkpt lat="46.1787" lon="6.59868">
        <ele>1624</ele>
        <time>2022-01-30T10:17:35Z</time>
      </trkpt>
      <trkpt lat="46.17872" lon="6.59849">
        <ele>1628</ele>
        <time>2022-01-30T10:18:04Z</time>
      </trkpt>
      <trkpt lat="46.17871" lon="6.59845">
        <ele>1628</ele>
        <time>2022-01-30T10:18:12Z</time>
      </trkpt>
      <trkpt lat="46.1787" lon="6.59822">
        <ele>1633</ele>
        <time>2022-01-30T10:18:49Z</time>
      </trkpt>
      <trkpt lat="46.17868" lon="6.59812">
        <ele>1635</ele>
        <time>2022-01-30T10:19:02Z</time>
      </trkpt>
      <trkpt lat="46.17867" lon="6.59802">
        <ele>1636</ele>
        <time>2022-01-30T10:19:15Z</time>
      </trkpt>
      <trkpt lat="46.1787" lon="6.59792">
        <ele>1639</ele>
        <time>2022-01-30T10:19:32Z</time>
      </trkpt>
      <trkpt lat="46.1787" lon="6.59777">
        <ele>1643</ele>
        <time>2022-01-30T10:19:53Z</time>
      </trkpt>
      <trkpt lat="46.17869" lon="6.5976">
        <ele>1644</ele>
        <time>2022-01-30T10:20:13Z</time>
      </trkpt>
      <trkpt lat="46.17869" lon="6.59755">
        <ele>1645</ele>
        <time>2022-01-30T10:20:21Z</time>
      </trkpt>
      <trkpt lat="46.17869" lon="6.59742">
        <ele>1647</ele>
        <time>2022-01-30T10:20:37Z</time>
      </trkpt>
      <trkpt lat="46.17868" lon="6.59731">
        <ele>1648</ele>
        <time>2022-01-30T10:20:51Z</time>
      </trkpt>
      <trkpt lat="46.17868" lon="6.59726">
        <ele>1650</ele>
        <time>2022-01-30T10:21:01Z</time>
      </trkpt>
      <trkpt lat="46.17868" lon="6.59702">
        <ele>1651</ele>
        <time>2022-01-30T10:21:29Z</time>
      </trkpt>
      <trkpt lat="46.17868" lon="6.59696">
        <ele>1652</ele>
        <time>2022-01-30T10:21:37Z</time>
      </trkpt>
      <trkpt lat="46.17869" lon="6.59683">
        <ele>1656</ele>
        <time>2022-01-30T10:21:56Z</time>
      </trkpt>
      <trkpt lat="46.17871" lon="6.59671">
        <ele>1659</ele>
        <time>2022-01-30T10:22:13Z</time>
      </trkpt>
      <trkpt lat="46.17872" lon="6.59666">
        <ele>1661</ele>
        <time>2022-01-30T10:22:19Z</time>
      </trkpt>
      <trkpt lat="46.17872" lon="6.5965">
        <ele>1664</ele>
        <time>2022-01-30T10:22:41Z</time>
      </trkpt>
      <trkpt lat="46.17872" lon="6.59633">
        <ele>1668</ele>
        <time>2022-01-30T10:23:09Z</time>
      </trkpt>
      <trkpt lat="46.17871" lon="6.59616">
        <ele>1672</ele>
        <time>2022-01-30T10:23:39Z</time>
      </trkpt>
      <trkpt lat="46.17872" lon="6.59612">
        <ele>1673</ele>
        <time>2022-01-30T10:23:44Z</time>
      </trkpt>
      <trkpt lat="46.17872" lon="6.59607">
        <ele>1674</ele>
        <time>2022-01-30T10:23:50Z</time>
      </trkpt>
      <trkpt lat="46.17872" lon="6.59601">
        <ele>1674</ele>
        <time>2022-01-30T10:23:57Z</time>
      </trkpt>
      <trkpt lat="46.17874" lon="6.59589">
        <ele>1676</ele>
        <time>2022-01-30T10:24:12Z</time>
      </trkpt>
      <trkpt lat="46.17876" lon="6.59583">
        <ele>1676</ele>
        <time>2022-01-30T10:24:21Z</time>
      </trkpt>
      <trkpt lat="46.17875" lon="6.59578">
        <ele>1677</ele>
        <time>2022-01-30T10:24:28Z</time>
      </trkpt>
      <trkpt lat="46.17874" lon="6.59574">
        <ele>1678</ele>
        <time>2022-01-30T10:24:34Z</time>
      </trkpt>
      <trkpt lat="46.17872" lon="6.59568">
        <ele>1678</ele>
        <time>2022-01-30T10:24:42Z</time>
      </trkpt>
      <trkpt lat="46.17866" lon="6.59559">
        <ele>1680</ele>
        <time>2022-01-30T10:24:54Z</time>
      </trkpt>
      <trkpt lat="46.17864" lon="6.59549">
        <ele>1683</ele>
        <time>2022-01-30T10:25:04Z</time>
      </trkpt>
      <trkpt lat="46.17861" lon="6.59549">
        <ele>1684</ele>
        <time>2022-01-30T10:29:27Z</time>
      </trkpt>
      <trkpt lat="46.17859" lon="6.5955">
        <ele>1684</ele>
        <time>2022-01-30T10:35:03Z</time>
      </trkpt>
      <trkpt lat="46.17859" lon="6.59544">
        <ele>1685</ele>
        <time>2022-01-30T10:35:07Z</time>
      </trkpt>
      <trkpt lat="46.17862" lon="6.59538">
        <ele>1687</ele>
        <time>2022-01-30T10:35:15Z</time>
      </trkpt>
      <trkpt lat="46.17877" lon="6.59511">
        <ele>1686</ele>
        <time>2022-01-30T10:35:48Z</time>
      </trkpt>
      <trkpt lat="46.17891" lon="6.59478">
        <ele>1690</ele>
        <time>2022-01-30T10:36:21Z</time>
      </trkpt>
      <trkpt lat="46.17895" lon="6.59469">
        <ele>1693</ele>
        <time>2022-01-30T10:36:32Z</time>
      </trkpt>
      <trkpt lat="46.17899" lon="6.59466">
        <ele>1693</ele>
        <time>2022-01-30T10:36:37Z</time>
      </trkpt>
      <trkpt lat="46.17901" lon="6.59462">
        <ele>1694</ele>
        <time>2022-01-30T10:36:45Z</time>
      </trkpt>
      <trkpt lat="46.17905" lon="6.59454">
        <ele>1697</ele>
        <time>2022-01-30T10:37:03Z</time>
      </trkpt>
      <trkpt lat="46.17907" lon="6.59449">
        <ele>1697</ele>
        <time>2022-01-30T10:37:08Z</time>
      </trkpt>
      <trkpt lat="46.17909" lon="6.59445">
        <ele>1697</ele>
        <time>2022-01-30T10:37:14Z</time>
      </trkpt>
      <trkpt lat="46.17911" lon="6.59441">
        <ele>1698</ele>
        <time>2022-01-30T10:37:22Z</time>
      </trkpt>
      <trkpt lat="46.17922" lon="6.59418">
        <ele>1702</ele>
        <time>2022-01-30T10:37:52Z</time>
      </trkpt>
      <trkpt lat="46.17924" lon="6.59416">
        <ele>1702</ele>
        <time>2022-01-30T10:37:58Z</time>
      </trkpt>
      <trkpt lat="46.17929" lon="6.59407">
        <ele>1702</ele>
        <time>2022-01-30T10:38:11Z</time>
      </trkpt>
      <trkpt lat="46.17929" lon="6.59403">
        <ele>1702</ele>
        <time>2022-01-30T10:38:18Z</time>
      </trkpt>
      <trkpt lat="46.1793" lon="6.59399">
        <ele>1703</ele>
        <time>2022-01-30T10:38:22Z</time>
      </trkpt>
      <trkpt lat="46.1793" lon="6.59395">
        <ele>1703</ele>
        <time>2022-01-30T10:40:53Z</time>
      </trkpt>
      <trkpt lat="46.17934" lon="6.59393">
        <ele>1703</ele>
        <time>2022-01-30T10:41:00Z</time>
      </trkpt>
      <trkpt lat="46.17936" lon="6.59389">
        <ele>1705</ele>
        <time>2022-01-30T10:41:09Z</time>
      </trkpt>
      <trkpt lat="46.17939" lon="6.59386">
        <ele>1709</ele>
        <time>2022-01-30T10:41:18Z</time>
      </trkpt>
      <trkpt lat="46.17942" lon="6.59382">
        <ele>1711</ele>
        <time>2022-01-30T10:41:27Z</time>
      </trkpt>
      <trkpt lat="46.17944" lon="6.59379">
        <ele>1713</ele>
        <time>2022-01-30T10:41:37Z</time>
      </trkpt>
      <trkpt lat="46.1795" lon="6.59373">
        <ele>1715</ele>
        <time>2022-01-30T10:41:56Z</time>
      </trkpt>
      <trkpt lat="46.17953" lon="6.59368">
        <ele>1715</ele>
        <time>2022-01-30T10:42:10Z</time>
      </trkpt>
      <trkpt lat="46.17954" lon="6.59364">
        <ele>1715</ele>
        <time>2022-01-30T10:42:18Z</time>
      </trkpt>
      <trkpt lat="46.17951" lon="6.59359">
        <ele>1716</ele>
        <time>2022-01-30T10:42:36Z</time>
      </trkpt>
      <trkpt lat="46.17948" lon="6.59355">
        <ele>1717</ele>
        <time>2022-01-30T10:42:45Z</time>
      </trkpt>
      <trkpt lat="46.17948" lon="6.59349">
        <ele>1718</ele>
        <time>2022-01-30T10:42:53Z</time>
      </trkpt>
      <trkpt lat="46.17948" lon="6.59342">
        <ele>1719</ele>
        <time>2022-01-30T10:43:05Z</time>
      </trkpt>
      <trkpt lat="46.17949" lon="6.59334">
        <ele>1719</ele>
        <time>2022-01-30T10:43:14Z</time>
      </trkpt>
      <trkpt lat="46.17949" lon="6.59329">
        <ele>1721</ele>
        <time>2022-01-30T10:43:26Z</time>
      </trkpt>
      <trkpt lat="46.17948" lon="6.59322">
        <ele>1722</ele>
        <time>2022-01-30T10:43:35Z</time>
      </trkpt>
      <trkpt lat="46.17948" lon="6.59319">
        <ele>1722</ele>
        <time>2022-01-30T10:43:41Z</time>
      </trkpt>
      <trkpt lat="46.17949" lon="6.59303">
        <ele>1725</ele>
        <time>2022-01-30T10:43:58Z</time>
      </trkpt>
      <trkpt lat="46.17949" lon="6.59298">
        <ele>1725</ele>
        <time>2022-01-30T10:44:05Z</time>
      </trkpt>
      <trkpt lat="46.17948" lon="6.59293">
        <ele>1727</ele>
        <time>2022-01-30T10:44:12Z</time>
      </trkpt>
      <trkpt lat="46.17947" lon="6.59288">
        <ele>1728</ele>
        <time>2022-01-30T10:44:20Z</time>
      </trkpt>
      <trkpt lat="46.17945" lon="6.59285">
        <ele>1731</ele>
        <time>2022-01-30T10:44:28Z</time>
      </trkpt>
      <trkpt lat="46.17941" lon="6.59283">
        <ele>1732</ele>
        <time>2022-01-30T10:44:35Z</time>
      </trkpt>
      <trkpt lat="46.17937" lon="6.5928">
        <ele>1734</ele>
        <time>2022-01-30T10:44:47Z</time>
      </trkpt>
      <trkpt lat="46.17935" lon="6.59274">
        <ele>1735</ele>
        <time>2022-01-30T10:44:53Z</time>
      </trkpt>
      <trkpt lat="46.17935" lon="6.5927">
        <ele>1736</ele>
        <time>2022-01-30T10:44:59Z</time>
      </trkpt>
      <trkpt lat="46.17938" lon="6.59261">
        <ele>1737</ele>
        <time>2022-01-30T10:45:09Z</time>
      </trkpt>
      <trkpt lat="46.17939" lon="6.59255">
        <ele>1737</ele>
        <time>2022-01-30T10:45:18Z</time>
      </trkpt>
      <trkpt lat="46.1794" lon="6.59251">
        <ele>1738</ele>
        <time>2022-01-30T10:45:24Z</time>
      </trkpt>
      <trkpt lat="46.17941" lon="6.59247">
        <ele>1738</ele>
        <time>2022-01-30T10:45:31Z</time>
      </trkpt>
      <trkpt lat="46.17942" lon="6.59243">
        <ele>1738</ele>
        <time>2022-01-30T10:45:35Z</time>
      </trkpt>
      <trkpt lat="46.17945" lon="6.59239">
        <ele>1739</ele>
        <time>2022-01-30T10:45:41Z</time>
      </trkpt>
      <trkpt lat="46.17949" lon="6.59238">
        <ele>1742</ele>
        <time>2022-01-30T10:45:49Z</time>
      </trkpt>
      <trkpt lat="46.17952" lon="6.59235">
        <ele>1743</ele>
        <time>2022-01-30T10:46:00Z</time>
      </trkpt>
      <trkpt lat="46.17955" lon="6.59231">
        <ele>1746</ele>
        <time>2022-01-30T10:46:07Z</time>
      </trkpt>
      <trkpt lat="46.17958" lon="6.59229">
        <ele>1746</ele>
        <time>2022-01-30T10:46:21Z</time>
      </trkpt>
      <trkpt lat="46.17965" lon="6.59221">
        <ele>1746</ele>
        <time>2022-01-30T10:46:46Z</time>
      </trkpt>
      <trkpt lat="46.17974" lon="6.59211">
        <ele>1751</ele>
        <time>2022-01-30T10:47:07Z</time>
      </trkpt>
      <trkpt lat="46.17976" lon="6.59206">
        <ele>1755</ele>
        <time>2022-01-30T10:47:14Z</time>
      </trkpt>
      <trkpt lat="46.1798" lon="6.59205">
        <ele>1756</ele>
        <time>2022-01-30T10:47:21Z</time>
      </trkpt>
      <trkpt lat="46.17987" lon="6.59208">
        <ele>1757</ele>
        <time>2022-01-30T10:47:42Z</time>
      </trkpt>
      <trkpt lat="46.17991" lon="6.59212">
        <ele>1759</ele>
        <time>2022-01-30T10:47:51Z</time>
      </trkpt>
      <trkpt lat="46.17994" lon="6.59215">
        <ele>1759</ele>
        <time>2022-01-30T10:48:00Z</time>
      </trkpt>
      <trkpt lat="46.17998" lon="6.59211">
        <ele>1760</ele>
        <time>2022-01-30T10:48:10Z</time>
      </trkpt>
      <trkpt lat="46.17999" lon="6.59205">
        <ele>1762</ele>
        <time>2022-01-30T10:48:21Z</time>
      </trkpt>
      <trkpt lat="46.17999" lon="6.59201">
        <ele>1762</ele>
        <time>2022-01-30T10:48:31Z</time>
      </trkpt>
      <trkpt lat="46.17999" lon="6.59196">
        <ele>1761</ele>
        <time>2022-01-30T10:48:43Z</time>
      </trkpt>
      <trkpt lat="46.17997" lon="6.59187">
        <ele>1762</ele>
        <time>2022-01-30T10:48:56Z</time>
      </trkpt>
      <trkpt lat="46.17996" lon="6.59182">
        <ele>1763</ele>
        <time>2022-01-30T10:49:04Z</time>
      </trkpt>
      <trkpt lat="46.17997" lon="6.59178">
        <ele>1764</ele>
        <time>2022-01-30T10:49:09Z</time>
      </trkpt>
      <trkpt lat="46.17998" lon="6.59168">
        <ele>1765</ele>
        <time>2022-01-30T10:49:23Z</time>
      </trkpt>
      <trkpt lat="46.18001" lon="6.59165">
        <ele>1766</ele>
        <time>2022-01-30T10:49:31Z</time>
      </trkpt>
      <trkpt lat="46.18006" lon="6.59166">
        <ele>1769</ele>
        <time>2022-01-30T10:49:42Z</time>
      </trkpt>
      <trkpt lat="46.18012" lon="6.5917">
        <ele>1773</ele>
        <time>2022-01-30T10:49:59Z</time>
      </trkpt>
      <trkpt lat="46.18016" lon="6.59161">
        <ele>1775</ele>
        <time>2022-01-30T10:50:21Z</time>
      </trkpt>
      <trkpt lat="46.18023" lon="6.59142">
        <ele>1777</ele>
        <time>2022-01-30T10:50:55Z</time>
      </trkpt>
      <trkpt lat="46.18028" lon="6.59131">
        <ele>1779</ele>
        <time>2022-01-30T10:51:31Z</time>
      </trkpt>
      <trkpt lat="46.18031" lon="6.59122">
        <ele>1780</ele>
        <time>2022-01-30T10:51:43Z</time>
      </trkpt>
      <trkpt lat="46.18033" lon="6.59119">
        <ele>1782</ele>
        <time>2022-01-30T10:51:57Z</time>
      </trkpt>
      <trkpt lat="46.18041" lon="6.59105">
        <ele>1785</ele>
        <time>2022-01-30T10:52:25Z</time>
      </trkpt>
      <trkpt lat="46.18044" lon="6.591">
        <ele>1787</ele>
        <time>2022-01-30T10:52:35Z</time>
      </trkpt>
      <trkpt lat="46.18046" lon="6.59095">
        <ele>1789</ele>
        <time>2022-01-30T10:52:44Z</time>
      </trkpt>
      <trkpt lat="46.18049" lon="6.59089">
        <ele>1791</ele>
        <time>2022-01-30T10:52:54Z</time>
      </trkpt>
      <trkpt lat="46.18052" lon="6.59085">
        <ele>1792</ele>
        <time>2022-01-30T10:53:01Z</time>
      </trkpt>
      <trkpt lat="46.18054" lon="6.5908">
        <ele>1793</ele>
        <time>2022-01-30T10:53:09Z</time>
      </trkpt>
      <trkpt lat="46.18057" lon="6.59077">
        <ele>1794</ele>
        <time>2022-01-30T10:53:15Z</time>
      </trkpt>
      <trkpt lat="46.18059" lon="6.59073">
        <ele>1796</ele>
        <time>2022-01-30T10:53:25Z</time>
      </trkpt>
      <trkpt lat="46.18066" lon="6.59058">
        <ele>1799</ele>
        <time>2022-01-30T10:53:58Z</time>
      </trkpt>
      <trkpt lat="46.18068" lon="6.59054">
        <ele>1799</ele>
        <time>2022-01-30T10:54:03Z</time>
      </trkpt>
      <trkpt lat="46.18069" lon="6.59048">
        <ele>1802</ele>
        <time>2022-01-30T10:54:11Z</time>
      </trkpt>
      <trkpt lat="46.18069" lon="6.59041">
        <ele>1804</ele>
        <time>2022-01-30T10:54:21Z</time>
      </trkpt>
      <trkpt lat="46.1807" lon="6.59036">
        <ele>1808</ele>
        <time>2022-01-30T10:54:31Z</time>
      </trkpt>
      <trkpt lat="46.1807" lon="6.59032">
        <ele>1808</ele>
        <time>2022-01-30T10:54:34Z</time>
      </trkpt>
      <trkpt lat="46.18069" lon="6.59021">
        <ele>1812</ele>
        <time>2022-01-30T10:55:02Z</time>
      </trkpt>
      <trkpt lat="46.18077" lon="6.59025">
        <ele>1814</ele>
        <time>2022-01-30T10:55:25Z</time>
      </trkpt>
      <trkpt lat="46.18081" lon="6.59029">
        <ele>1815</ele>
        <time>2022-01-30T10:55:35Z</time>
      </trkpt>
      <trkpt lat="46.18085" lon="6.59029">
        <ele>1816</ele>
        <time>2022-01-30T10:55:48Z</time>
      </trkpt>
      <trkpt lat="46.18088" lon="6.59024">
        <ele>1817</ele>
        <time>2022-01-30T10:55:58Z</time>
      </trkpt>
      <trkpt lat="46.18088" lon="6.59019">
        <ele>1819</ele>
        <time>2022-01-30T10:56:12Z</time>
      </trkpt>
      <trkpt lat="46.18089" lon="6.59012">
        <ele>1821</ele>
        <time>2022-01-30T10:56:26Z</time>
      </trkpt>
      <trkpt lat="46.18092" lon="6.59011">
        <ele>1825</ele>
        <time>2022-01-30T10:56:38Z</time>
      </trkpt>
      <trkpt lat="46.18095" lon="6.59011">
        <ele>1826</ele>
        <time>2022-01-30T10:56:45Z</time>
      </trkpt>
      <trkpt lat="46.18106" lon="6.59008">
        <ele>1826</ele>
        <time>2022-01-30T10:57:08Z</time>
      </trkpt>
      <trkpt lat="46.18108" lon="6.59004">
        <ele>1825</ele>
        <time>2022-01-30T10:57:30Z</time>
      </trkpt>
      <trkpt lat="46.18107" lon="6.59005">
        <ele>1841</ele>
        <time>2022-01-30T11:38:26Z</time>
      </trkpt>
      <trkpt lat="46.18103" lon="6.59004">
        <ele>1840</ele>
        <time>2022-01-30T11:44:01Z</time>
      </trkpt>
      <trkpt lat="46.18099" lon="6.59002">
        <ele>1840</ele>
        <time>2022-01-30T11:45:56Z</time>
      </trkpt>
      <trkpt lat="46.18095" lon="6.59003">
        <ele>1841</ele>
        <time>2022-01-30T11:49:10Z</time>
      </trkpt>
      <trkpt lat="46.18091" lon="6.59002">
        <ele>1840</ele>
        <time>2022-01-30T11:49:12Z</time>
      </trkpt>
      <trkpt lat="46.1809" lon="6.59012">
        <ele>1840</ele>
        <time>2022-01-30T11:49:14Z</time>
      </trkpt>
      <trkpt lat="46.18084" lon="6.59017">
        <ele>1839</ele>
        <time>2022-01-30T11:49:16Z</time>
      </trkpt>
      <trkpt lat="46.18082" lon="6.59028">
        <ele>1839</ele>
        <time>2022-01-30T11:49:18Z</time>
      </trkpt>
      <trkpt lat="46.18072" lon="6.59025">
        <ele>1838</ele>
        <time>2022-01-30T11:49:20Z</time>
      </trkpt>
      <trkpt lat="46.18072" lon="6.59034">
        <ele>1836</ele>
        <time>2022-01-30T11:49:24Z</time>
      </trkpt>
      <trkpt lat="46.18075" lon="6.59035">
        <ele>1832</ele>
        <time>2022-01-30T11:49:46Z</time>
      </trkpt>
      <trkpt lat="46.18073" lon="6.59045">
        <ele>1831</ele>
        <time>2022-01-30T11:50:51Z</time>
      </trkpt>
      <trkpt lat="46.18071" lon="6.59049">
        <ele>1830</ele>
        <time>2022-01-30T11:50:52Z</time>
      </trkpt>
      <trkpt lat="46.18067" lon="6.5905">
        <ele>1830</ele>
        <time>2022-01-30T11:50:53Z</time>
      </trkpt>
      <trkpt lat="46.18061" lon="6.59053">
        <ele>1830</ele>
        <time>2022-01-30T11:50:55Z</time>
      </trkpt>
      <trkpt lat="46.1806" lon="6.59064">
        <ele>1829</ele>
        <time>2022-01-30T11:50:57Z</time>
      </trkpt>
      <trkpt lat="46.18052" lon="6.59071">
        <ele>1829</ele>
        <time>2022-01-30T11:50:59Z</time>
      </trkpt>
      <trkpt lat="46.18048" lon="6.59081">
        <ele>1828</ele>
        <time>2022-01-30T11:51:01Z</time>
      </trkpt>
      <trkpt lat="46.18045" lon="6.59092">
        <ele>1828</ele>
        <time>2022-01-30T11:51:03Z</time>
      </trkpt>
      <trkpt lat="46.18041" lon="6.59098">
        <ele>1827</ele>
        <time>2022-01-30T11:51:05Z</time>
      </trkpt>
      <trkpt lat="46.18034" lon="6.59104">
        <ele>1825</ele>
        <time>2022-01-30T11:51:07Z</time>
      </trkpt>
      <trkpt lat="46.18027" lon="6.59113">
        <ele>1823</ele>
        <time>2022-01-30T11:51:09Z</time>
      </trkpt>
      <trkpt lat="46.18022" lon="6.59116">
        <ele>1822</ele>
        <time>2022-01-30T11:51:10Z</time>
      </trkpt>
      <trkpt lat="46.18014" lon="6.59127">
        <ele>1820</ele>
        <time>2022-01-30T11:51:12Z</time>
      </trkpt>
      <trkpt lat="46.18009" lon="6.5913">
        <ele>1819</ele>
        <time>2022-01-30T11:51:13Z</time>
      </trkpt>
      <trkpt lat="46.18004" lon="6.59141">
        <ele>1816</ele>
        <time>2022-01-30T11:51:15Z</time>
      </trkpt>
      <trkpt lat="46.18" lon="6.59142">
        <ele>1815</ele>
        <time>2022-01-30T11:51:16Z</time>
      </trkpt>
      <trkpt lat="46.17998" lon="6.59149">
        <ele>1814</ele>
        <time>2022-01-30T11:51:18Z</time>
      </trkpt>
      <trkpt lat="46.17998" lon="6.5915">
        <ele>1803</ele>
        <time>2022-01-30T11:53:24Z</time>
      </trkpt>
      <trkpt lat="46.17995" lon="6.59153">
        <ele>1803</ele>
        <time>2022-01-30T11:53:26Z</time>
      </trkpt>
      <trkpt lat="46.17999" lon="6.59163">
        <ele>1801</ele>
        <time>2022-01-30T11:53:50Z</time>
      </trkpt>
      <trkpt lat="46.18002" lon="6.5917">
        <ele>1793</ele>
        <time>2022-01-30T11:53:51Z</time>
      </trkpt>
      <trkpt lat="46.18004" lon="6.59178">
        <ele>1791</ele>
        <time>2022-01-30T11:53:52Z</time>
      </trkpt>
      <trkpt lat="46.18011" lon="6.59216">
        <ele>1784</ele>
        <time>2022-01-30T11:53:57Z</time>
      </trkpt>
      <trkpt lat="46.1801" lon="6.59229">
        <ele>1783</ele>
        <time>2022-01-30T11:53:59Z</time>
      </trkpt>
      <trkpt lat="46.18008" lon="6.59238">
        <ele>1782</ele>
        <time>2022-01-30T11:54:01Z</time>
      </trkpt>
      <trkpt lat="46.18003" lon="6.59239">
        <ele>1781</ele>
        <time>2022-01-30T11:54:03Z</time>
      </trkpt>
      <trkpt lat="46.18001" lon="6.59248">
        <ele>1780</ele>
        <time>2022-01-30T11:54:07Z</time>
      </trkpt>
      <trkpt lat="46.17998" lon="6.59246">
        <ele>1778</ele>
        <time>2022-01-30T11:55:04Z</time>
      </trkpt>
      <trkpt lat="46.17994" lon="6.59247">
        <ele>1778</ele>
        <time>2022-01-30T11:55:12Z</time>
      </trkpt>
      <trkpt lat="46.17993" lon="6.59255">
        <ele>1774</ele>
        <time>2022-01-30T11:55:14Z</time>
      </trkpt>
      <trkpt lat="46.17985" lon="6.59258">
        <ele>1772</ele>
        <time>2022-01-30T11:55:17Z</time>
      </trkpt>
      <trkpt lat="46.17987" lon="6.59273">
        <ele>1768</ele>
        <time>2022-01-30T11:55:29Z</time>
      </trkpt>
      <trkpt lat="46.17982" lon="6.59274">
        <ele>1767</ele>
        <time>2022-01-30T11:55:31Z</time>
      </trkpt>
      <trkpt lat="46.17976" lon="6.59276">
        <ele>1765</ele>
        <time>2022-01-30T11:55:34Z</time>
      </trkpt>
      <trkpt lat="46.17979" lon="6.59286">
        <ele>1763</ele>
        <time>2022-01-30T11:55:36Z</time>
      </trkpt>
      <trkpt lat="46.17972" lon="6.59288">
        <ele>1761</ele>
        <time>2022-01-30T11:55:38Z</time>
      </trkpt>
      <trkpt lat="46.17972" lon="6.59298">
        <ele>1759</ele>
        <time>2022-01-30T11:55:41Z</time>
      </trkpt>
      <trkpt lat="46.17974" lon="6.59308">
        <ele>1756</ele>
        <time>2022-01-30T11:55:43Z</time>
      </trkpt>
      <trkpt lat="46.17971" lon="6.59315">
        <ele>1753</ele>
        <time>2022-01-30T11:55:45Z</time>
      </trkpt>
      <trkpt lat="46.17966" lon="6.5931">
        <ele>1753</ele>
        <time>2022-01-30T11:55:46Z</time>
      </trkpt>
      <trkpt lat="46.17965" lon="6.59304">
        <ele>1751</ele>
        <time>2022-01-30T11:55:48Z</time>
      </trkpt>
      <trkpt lat="46.17963" lon="6.59298">
        <ele>1746</ele>
        <time>2022-01-30T11:56:32Z</time>
      </trkpt>
      <trkpt lat="46.17958" lon="6.59302">
        <ele>1745</ele>
        <time>2022-01-30T11:56:35Z</time>
      </trkpt>
      <trkpt lat="46.17958" lon="6.59309">
        <ele>1745</ele>
        <time>2022-01-30T11:56:36Z</time>
      </trkpt>
      <trkpt lat="46.17957" lon="6.59319">
        <ele>1744</ele>
        <time>2022-01-30T11:56:38Z</time>
      </trkpt>
      <trkpt lat="46.17952" lon="6.5932">
        <ele>1744</ele>
        <time>2022-01-30T11:56:39Z</time>
      </trkpt>
      <trkpt lat="46.17939" lon="6.59311">
        <ele>1743</ele>
        <time>2022-01-30T11:56:42Z</time>
      </trkpt>
      <trkpt lat="46.17933" lon="6.59312">
        <ele>1743</ele>
        <time>2022-01-30T11:56:44Z</time>
      </trkpt>
      <trkpt lat="46.17925" lon="6.59321">
        <ele>1742</ele>
        <time>2022-01-30T11:56:48Z</time>
      </trkpt>
      <trkpt lat="46.17923" lon="6.59327">
        <ele>1741</ele>
        <time>2022-01-30T11:56:51Z</time>
      </trkpt>
      <trkpt lat="46.17929" lon="6.59329">
        <ele>1740</ele>
        <time>2022-01-30T11:56:53Z</time>
      </trkpt>
      <trkpt lat="46.17938" lon="6.59332">
        <ele>1738</ele>
        <time>2022-01-30T11:56:55Z</time>
      </trkpt>
      <trkpt lat="46.17942" lon="6.59334">
        <ele>1736</ele>
        <time>2022-01-30T11:56:56Z</time>
      </trkpt>
      <trkpt lat="46.17946" lon="6.59338">
        <ele>1734</ele>
        <time>2022-01-30T11:57:00Z</time>
      </trkpt>
      <trkpt lat="46.17949" lon="6.59341">
        <ele>1732</ele>
        <time>2022-01-30T11:58:29Z</time>
      </trkpt>
      <trkpt lat="46.17978" lon="6.59385">
        <ele>1724</ele>
        <time>2022-01-30T11:58:41Z</time>
      </trkpt>
      <trkpt lat="46.1798" lon="6.59393">
        <ele>1723</ele>
        <time>2022-01-30T11:58:42Z</time>
      </trkpt>
      <trkpt lat="46.17978" lon="6.59402">
        <ele>1723</ele>
        <time>2022-01-30T11:58:43Z</time>
      </trkpt>
      <trkpt lat="46.1797" lon="6.59416">
        <ele>1722</ele>
        <time>2022-01-30T11:58:47Z</time>
      </trkpt>
      <trkpt lat="46.17967" lon="6.59411">
        <ele>1722</ele>
        <time>2022-01-30T11:58:50Z</time>
      </trkpt>
      <trkpt lat="46.17963" lon="6.59411">
        <ele>1720</ele>
        <time>2022-01-30T11:59:27Z</time>
      </trkpt>
      <trkpt lat="46.17957" lon="6.59414">
        <ele>1720</ele>
        <time>2022-01-30T11:59:30Z</time>
      </trkpt>
      <trkpt lat="46.1795" lon="6.59418">
        <ele>1718</ele>
        <time>2022-01-30T11:59:32Z</time>
      </trkpt>
      <trkpt lat="46.17942" lon="6.59425">
        <ele>1717</ele>
        <time>2022-01-30T11:59:34Z</time>
      </trkpt>
      <trkpt lat="46.17932" lon="6.59425">
        <ele>1716</ele>
        <time>2022-01-30T11:59:38Z</time>
      </trkpt>
      <trkpt lat="46.17927" lon="6.59419">
        <ele>1715</ele>
        <time>2022-01-30T11:59:41Z</time>
      </trkpt>
      <trkpt lat="46.17924" lon="6.59426">
        <ele>1715</ele>
        <time>2022-01-30T11:59:44Z</time>
      </trkpt>
      <trkpt lat="46.17909" lon="6.59445">
        <ele>1713</ele>
        <time>2022-01-30T11:59:50Z</time>
      </trkpt>
      <trkpt lat="46.17903" lon="6.59436">
        <ele>1710</ele>
        <time>2022-01-30T11:59:55Z</time>
      </trkpt>
      <trkpt lat="46.179" lon="6.59438">
        <ele>1705</ele>
        <time>2022-01-30T12:01:33Z</time>
      </trkpt>
      <trkpt lat="46.17883" lon="6.5944">
        <ele>1707</ele>
        <time>2022-01-30T12:02:00Z</time>
      </trkpt>
      <trkpt lat="46.17842" lon="6.59461">
        <ele>1706</ele>
        <time>2022-01-30T12:02:08Z</time>
      </trkpt>
      <trkpt lat="46.17793" lon="6.59492">
        <ele>1703</ele>
        <time>2022-01-30T12:02:18Z</time>
      </trkpt>
      <trkpt lat="46.17777" lon="6.5951">
        <ele>1702</ele>
        <time>2022-01-30T12:02:24Z</time>
      </trkpt>
      <trkpt lat="46.17774" lon="6.59511">
        <ele>1702</ele>
        <time>2022-01-30T12:02:25Z</time>
      </trkpt>
      <trkpt lat="46.17773" lon="6.59507">
        <ele>1702</ele>
        <time>2022-01-30T12:02:30Z</time>
      </trkpt>
      <trkpt lat="46.17769" lon="6.59505">
        <ele>1701</ele>
        <time>2022-01-30T12:03:53Z</time>
      </trkpt>
      <trkpt lat="46.17765" lon="6.59513">
        <ele>1700</ele>
        <time>2022-01-30T12:03:55Z</time>
      </trkpt>
      <trkpt lat="46.17764" lon="6.59528">
        <ele>1699</ele>
        <time>2022-01-30T12:03:57Z</time>
      </trkpt>
      <trkpt lat="46.17766" lon="6.59537">
        <ele>1698</ele>
        <time>2022-01-30T12:03:59Z</time>
      </trkpt>
      <trkpt lat="46.17765" lon="6.59544">
        <ele>1697</ele>
        <time>2022-01-30T12:04:01Z</time>
      </trkpt>
      <trkpt lat="46.17758" lon="6.59541">
        <ele>1697</ele>
        <time>2022-01-30T12:04:03Z</time>
      </trkpt>
      <trkpt lat="46.17755" lon="6.59542">
        <ele>1695</ele>
        <time>2022-01-30T12:04:06Z</time>
      </trkpt>
      <trkpt lat="46.17756" lon="6.59547">
        <ele>1694</ele>
        <time>2022-01-30T12:04:15Z</time>
      </trkpt>
      <trkpt lat="46.17757" lon="6.59557">
        <ele>1692</ele>
        <time>2022-01-30T12:04:18Z</time>
      </trkpt>
      <trkpt lat="46.17762" lon="6.59574">
        <ele>1688</ele>
        <time>2022-01-30T12:04:22Z</time>
      </trkpt>
      <trkpt lat="46.17758" lon="6.59586">
        <ele>1687</ele>
        <time>2022-01-30T12:04:27Z</time>
      </trkpt>
      <trkpt lat="46.17759" lon="6.59595">
        <ele>1686</ele>
        <time>2022-01-30T12:04:29Z</time>
      </trkpt>
      <trkpt lat="46.17762" lon="6.59598">
        <ele>1683</ele>
        <time>2022-01-30T12:04:41Z</time>
      </trkpt>
      <trkpt lat="46.17764" lon="6.59606">
        <ele>1682</ele>
        <time>2022-01-30T12:04:43Z</time>
      </trkpt>
      <trkpt lat="46.17776" lon="6.59626">
        <ele>1677</ele>
        <time>2022-01-30T12:04:47Z</time>
      </trkpt>
      <trkpt lat="46.17792" lon="6.59672">
        <ele>1671</ele>
        <time>2022-01-30T12:04:57Z</time>
      </trkpt>
      <trkpt lat="46.17794" lon="6.59676">
        <ele>1670</ele>
        <time>2022-01-30T12:04:59Z</time>
      </trkpt>
      <trkpt lat="46.17792" lon="6.59683">
        <ele>1669</ele>
        <time>2022-01-30T12:05:58Z</time>
      </trkpt>
      <trkpt lat="46.17793" lon="6.5973">
        <ele>1665</ele>
        <time>2022-01-30T12:06:08Z</time>
      </trkpt>
      <trkpt lat="46.17793" lon="6.59738">
        <ele>1663</ele>
        <time>2022-01-30T12:06:10Z</time>
      </trkpt>
      <trkpt lat="46.17789" lon="6.59744">
        <ele>1662</ele>
        <time>2022-01-30T12:06:12Z</time>
      </trkpt>
      <trkpt lat="46.17787" lon="6.59731">
        <ele>1662</ele>
        <time>2022-01-30T12:06:14Z</time>
      </trkpt>
      <trkpt lat="46.17785" lon="6.59724">
        <ele>1659</ele>
        <time>2022-01-30T12:06:16Z</time>
      </trkpt>
      <trkpt lat="46.17781" lon="6.59716">
        <ele>1657</ele>
        <time>2022-01-30T12:06:18Z</time>
      </trkpt>
      <trkpt lat="46.17778" lon="6.5971">
        <ele>1653</ele>
        <time>2022-01-30T12:06:34Z</time>
      </trkpt>
      <trkpt lat="46.17775" lon="6.59708">
        <ele>1652</ele>
        <time>2022-01-30T12:06:36Z</time>
      </trkpt>
      <trkpt lat="46.17775" lon="6.59718">
        <ele>1651</ele>
        <time>2022-01-30T12:06:38Z</time>
      </trkpt>
      <trkpt lat="46.17769" lon="6.59717">
        <ele>1651</ele>
        <time>2022-01-30T12:06:40Z</time>
      </trkpt>
      <trkpt lat="46.17763" lon="6.59728">
        <ele>1650</ele>
        <time>2022-01-30T12:06:43Z</time>
      </trkpt>
      <trkpt lat="46.17763" lon="6.59742">
        <ele>1649</ele>
        <time>2022-01-30T12:06:45Z</time>
      </trkpt>
      <trkpt lat="46.17759" lon="6.5975">
        <ele>1648</ele>
        <time>2022-01-30T12:06:47Z</time>
      </trkpt>
      <trkpt lat="46.17756" lon="6.59742">
        <ele>1647</ele>
        <time>2022-01-30T12:06:49Z</time>
      </trkpt>
      <trkpt lat="46.17753" lon="6.59746">
        <ele>1646</ele>
        <time>2022-01-30T12:06:51Z</time>
      </trkpt>
      <trkpt lat="46.17747" lon="6.59741">
        <ele>1644</ele>
        <time>2022-01-30T12:06:53Z</time>
      </trkpt>
      <trkpt lat="46.17745" lon="6.59738">
        <ele>1636</ele>
        <time>2022-01-30T12:09:30Z</time>
      </trkpt>
      <trkpt lat="46.17741" lon="6.59739">
        <ele>1636</ele>
        <time>2022-01-30T12:09:32Z</time>
      </trkpt>
      <trkpt lat="46.17733" lon="6.59758">
        <ele>1634</ele>
        <time>2022-01-30T12:09:35Z</time>
      </trkpt>
      <trkpt lat="46.17729" lon="6.5977">
        <ele>1635</ele>
        <time>2022-01-30T12:09:37Z</time>
      </trkpt>
      <trkpt lat="46.17722" lon="6.59795">
        <ele>1635</ele>
        <time>2022-01-30T12:09:42Z</time>
      </trkpt>
      <trkpt lat="46.17723" lon="6.59799">
        <ele>1634</ele>
        <time>2022-01-30T12:10:06Z</time>
      </trkpt>
      <trkpt lat="46.1772" lon="6.59805">
        <ele>1633</ele>
        <time>2022-01-30T12:11:38Z</time>
      </trkpt>
      <trkpt lat="46.17716" lon="6.59809">
        <ele>1633</ele>
        <time>2022-01-30T12:11:39Z</time>
      </trkpt>
      <trkpt lat="46.17712" lon="6.59807">
        <ele>1632</ele>
        <time>2022-01-30T12:11:40Z</time>
      </trkpt>
      <trkpt lat="46.17707" lon="6.59804">
        <ele>1632</ele>
        <time>2022-01-30T12:11:42Z</time>
      </trkpt>
      <trkpt lat="46.17706" lon="6.59815">
        <ele>1631</ele>
        <time>2022-01-30T12:11:45Z</time>
      </trkpt>
      <trkpt lat="46.17702" lon="6.59812">
        <ele>1628</ele>
        <time>2022-01-30T12:12:05Z</time>
      </trkpt>
      <trkpt lat="46.17698" lon="6.59805">
        <ele>1625</ele>
        <time>2022-01-30T12:12:07Z</time>
      </trkpt>
      <trkpt lat="46.17695" lon="6.59793">
        <ele>1623</ele>
        <time>2022-01-30T12:12:09Z</time>
      </trkpt>
      <trkpt lat="46.1769" lon="6.59801">
        <ele>1622</ele>
        <time>2022-01-30T12:12:12Z</time>
      </trkpt>
      <trkpt lat="46.17683" lon="6.59798">
        <ele>1620</ele>
        <time>2022-01-30T12:12:14Z</time>
      </trkpt>
      <trkpt lat="46.1768" lon="6.59811">
        <ele>1619</ele>
        <time>2022-01-30T12:12:16Z</time>
      </trkpt>
      <trkpt lat="46.17675" lon="6.59812">
        <ele>1618</ele>
        <time>2022-01-30T12:12:17Z</time>
      </trkpt>
      <trkpt lat="46.1767" lon="6.59819">
        <ele>1618</ele>
        <time>2022-01-30T12:12:19Z</time>
      </trkpt>
      <trkpt lat="46.17672" lon="6.59827">
        <ele>1617</ele>
        <time>2022-01-30T12:12:20Z</time>
      </trkpt>
      <trkpt lat="46.17672" lon="6.59834">
        <ele>1616</ele>
        <time>2022-01-30T12:12:21Z</time>
      </trkpt>
      <trkpt lat="46.17664" lon="6.59839">
        <ele>1613</ele>
        <time>2022-01-30T12:12:23Z</time>
      </trkpt>
      <trkpt lat="46.17657" lon="6.59835">
        <ele>1612</ele>
        <time>2022-01-30T12:12:24Z</time>
      </trkpt>
      <trkpt lat="46.17649" lon="6.5983">
        <ele>1611</ele>
        <time>2022-01-30T12:12:26Z</time>
      </trkpt>
      <trkpt lat="46.1765" lon="6.59838">
        <ele>1610</ele>
        <time>2022-01-30T12:12:29Z</time>
      </trkpt>
      <trkpt lat="46.17651" lon="6.59845">
        <ele>1598</ele>
        <time>2022-01-30T12:15:17Z</time>
      </trkpt>
      <trkpt lat="46.17645" lon="6.59847">
        <ele>1597</ele>
        <time>2022-01-30T12:15:18Z</time>
      </trkpt>
      <trkpt lat="46.17635" lon="6.59844">
        <ele>1596</ele>
        <time>2022-01-30T12:15:20Z</time>
      </trkpt>
      <trkpt lat="46.17631" lon="6.59841">
        <ele>1595</ele>
        <time>2022-01-30T12:15:21Z</time>
      </trkpt>
      <trkpt lat="46.17609" lon="6.59816">
        <ele>1593</ele>
        <time>2022-01-30T12:15:31Z</time>
      </trkpt>
      <trkpt lat="46.17606" lon="6.59825">
        <ele>1592</ele>
        <time>2022-01-30T12:15:33Z</time>
      </trkpt>
      <trkpt lat="46.17597" lon="6.59821">
        <ele>1592</ele>
        <time>2022-01-30T12:15:35Z</time>
      </trkpt>
      <trkpt lat="46.17594" lon="6.59827">
        <ele>1591</ele>
        <time>2022-01-30T12:15:38Z</time>
      </trkpt>
      <trkpt lat="46.17597" lon="6.59833">
        <ele>1590</ele>
        <time>2022-01-30T12:15:41Z</time>
      </trkpt>
      <trkpt lat="46.176" lon="6.59839">
        <ele>1587</ele>
        <time>2022-01-30T12:15:45Z</time>
      </trkpt>
      <trkpt lat="46.17601" lon="6.59854">
        <ele>1582</ele>
        <time>2022-01-30T12:16:50Z</time>
      </trkpt>
      <trkpt lat="46.17593" lon="6.59856">
        <ele>1581</ele>
        <time>2022-01-30T12:16:52Z</time>
      </trkpt>
      <trkpt lat="46.17592" lon="6.59867">
        <ele>1580</ele>
        <time>2022-01-30T12:16:55Z</time>
      </trkpt>
      <trkpt lat="46.17596" lon="6.59874">
        <ele>1579</ele>
        <time>2022-01-30T12:16:57Z</time>
      </trkpt>
      <trkpt lat="46.17599" lon="6.59879">
        <ele>1578</ele>
        <time>2022-01-30T12:16:59Z</time>
      </trkpt>
      <trkpt lat="46.17604" lon="6.59885">
        <ele>1575</ele>
        <time>2022-01-30T12:17:03Z</time>
      </trkpt>
      <trkpt lat="46.17602" lon="6.59894">
        <ele>1574</ele>
        <time>2022-01-30T12:17:07Z</time>
      </trkpt>
      <trkpt lat="46.17598" lon="6.599">
        <ele>1572</ele>
        <time>2022-01-30T12:17:09Z</time>
      </trkpt>
      <trkpt lat="46.17597" lon="6.59909">
        <ele>1571</ele>
        <time>2022-01-30T12:17:12Z</time>
      </trkpt>
      <trkpt lat="46.17602" lon="6.59913">
        <ele>1568</ele>
        <time>2022-01-30T12:17:15Z</time>
      </trkpt>
      <trkpt lat="46.176" lon="6.5992">
        <ele>1564</ele>
        <time>2022-01-30T12:18:46Z</time>
      </trkpt>
      <trkpt lat="46.17592" lon="6.59924">
        <ele>1563</ele>
        <time>2022-01-30T12:18:48Z</time>
      </trkpt>
      <trkpt lat="46.1759" lon="6.59932">
        <ele>1563</ele>
        <time>2022-01-30T12:18:50Z</time>
      </trkpt>
      <trkpt lat="46.17587" lon="6.59944">
        <ele>1562</ele>
        <time>2022-01-30T12:18:52Z</time>
      </trkpt>
      <trkpt lat="46.17589" lon="6.59952">
        <ele>1561</ele>
        <time>2022-01-30T12:18:53Z</time>
      </trkpt>
      <trkpt lat="46.17596" lon="6.5996">
        <ele>1559</ele>
        <time>2022-01-30T12:18:55Z</time>
      </trkpt>
      <trkpt lat="46.17601" lon="6.59963">
        <ele>1552</ele>
        <time>2022-01-30T12:19:53Z</time>
      </trkpt>
      <trkpt lat="46.17592" lon="6.59966">
        <ele>1548</ele>
        <time>2022-01-30T12:20:16Z</time>
      </trkpt>
      <trkpt lat="46.17567" lon="6.5995">
        <ele>1544</ele>
        <time>2022-01-30T12:20:23Z</time>
      </trkpt>
      <trkpt lat="46.17556" lon="6.59948">
        <ele>1543</ele>
        <time>2022-01-30T12:20:25Z</time>
      </trkpt>
      <trkpt lat="46.17551" lon="6.59949">
        <ele>1543</ele>
        <time>2022-01-30T12:20:26Z</time>
      </trkpt>
      <trkpt lat="46.17547" lon="6.59947">
        <ele>1543</ele>
        <time>2022-01-30T12:20:32Z</time>
      </trkpt>
      <trkpt lat="46.17543" lon="6.59948">
        <ele>1543</ele>
        <time>2022-01-30T12:20:36Z</time>
      </trkpt>
      <trkpt lat="46.1752" lon="6.59923">
        <ele>1540</ele>
        <time>2022-01-30T12:20:46Z</time>
      </trkpt>
      <trkpt lat="46.17516" lon="6.5992">
        <ele>1538</ele>
        <time>2022-01-30T12:20:49Z</time>
      </trkpt>
      <trkpt lat="46.17515" lon="6.5993">
        <ele>1537</ele>
        <time>2022-01-30T12:20:52Z</time>
      </trkpt>
      <trkpt lat="46.17519" lon="6.59942">
        <ele>1534</ele>
        <time>2022-01-30T12:20:54Z</time>
      </trkpt>
      <trkpt lat="46.17529" lon="6.59967">
        <ele>1528</ele>
        <time>2022-01-30T12:21:00Z</time>
      </trkpt>
      <trkpt lat="46.17532" lon="6.59971">
        <ele>1523</ele>
        <time>2022-01-30T12:21:18Z</time>
      </trkpt>
      <trkpt lat="46.17525" lon="6.59977">
        <ele>1522</ele>
        <time>2022-01-30T12:22:00Z</time>
      </trkpt>
      <trkpt lat="46.17517" lon="6.59968">
        <ele>1521</ele>
        <time>2022-01-30T12:22:02Z</time>
      </trkpt>
      <trkpt lat="46.17502" lon="6.5996">
        <ele>1519</ele>
        <time>2022-01-30T12:22:06Z</time>
      </trkpt>
      <trkpt lat="46.17498" lon="6.59961">
        <ele>1518</ele>
        <time>2022-01-30T12:22:08Z</time>
      </trkpt>
      <trkpt lat="46.17499" lon="6.59967">
        <ele>1517</ele>
        <time>2022-01-30T12:22:24Z</time>
      </trkpt>
      <trkpt lat="46.17497" lon="6.59977">
        <ele>1515</ele>
        <time>2022-01-30T12:22:28Z</time>
      </trkpt>
      <trkpt lat="46.17491" lon="6.59998">
        <ele>1513</ele>
        <time>2022-01-30T12:22:32Z</time>
      </trkpt>
      <trkpt lat="46.17496" lon="6.60034">
        <ele>1510</ele>
        <time>2022-01-30T12:22:36Z</time>
      </trkpt>
      <trkpt lat="46.17497" lon="6.6005">
        <ele>1508</ele>
        <time>2022-01-30T12:22:38Z</time>
      </trkpt>
      <trkpt lat="46.17498" lon="6.60057">
        <ele>1508</ele>
        <time>2022-01-30T12:22:39Z</time>
      </trkpt>
      <trkpt lat="46.17493" lon="6.60065">
        <ele>1507</ele>
        <time>2022-01-30T12:22:41Z</time>
      </trkpt>
      <trkpt lat="46.1749" lon="6.60069">
        <ele>1504</ele>
        <time>2022-01-30T12:22:52Z</time>
      </trkpt>
      <trkpt lat="46.17486" lon="6.60074">
        <ele>1503</ele>
        <time>2022-01-30T12:22:54Z</time>
      </trkpt>
      <trkpt lat="46.17485" lon="6.60084">
        <ele>1502</ele>
        <time>2022-01-30T12:22:56Z</time>
      </trkpt>
      <trkpt lat="46.1749" lon="6.60092">
        <ele>1500</ele>
        <time>2022-01-30T12:22:59Z</time>
      </trkpt>
      <trkpt lat="46.17493" lon="6.60099">
        <ele>1499</ele>
        <time>2022-01-30T12:23:02Z</time>
      </trkpt>
      <trkpt lat="46.17494" lon="6.60108">
        <ele>1497</ele>
        <time>2022-01-30T12:23:05Z</time>
      </trkpt>
      <trkpt lat="46.17489" lon="6.60162">
        <ele>1492</ele>
        <time>2022-01-30T12:23:14Z</time>
      </trkpt>
      <trkpt lat="46.17487" lon="6.60168">
        <ele>1492</ele>
        <time>2022-01-30T12:23:15Z</time>
      </trkpt>
      <trkpt lat="46.17486" lon="6.60225">
        <ele>1490</ele>
        <time>2022-01-30T12:23:23Z</time>
      </trkpt>
      <trkpt lat="46.17483" lon="6.60232">
        <ele>1489</ele>
        <time>2022-01-30T12:23:25Z</time>
      </trkpt>
      <trkpt lat="46.17485" lon="6.6024">
        <ele>1487</ele>
        <time>2022-01-30T12:24:39Z</time>
      </trkpt>
      <trkpt lat="46.17482" lon="6.60249">
        <ele>1487</ele>
        <time>2022-01-30T12:24:41Z</time>
      </trkpt>
      <trkpt lat="46.17488" lon="6.60255">
        <ele>1485</ele>
        <time>2022-01-30T12:24:45Z</time>
      </trkpt>
      <trkpt lat="46.17485" lon="6.60265">
        <ele>1483</ele>
        <time>2022-01-30T12:24:47Z</time>
      </trkpt>
      <trkpt lat="46.17491" lon="6.6027">
        <ele>1481</ele>
        <time>2022-01-30T12:24:51Z</time>
      </trkpt>
      <trkpt lat="46.1749" lon="6.6028">
        <ele>1479</ele>
        <time>2022-01-30T12:24:53Z</time>
      </trkpt>
      <trkpt lat="46.17488" lon="6.60287">
        <ele>1478</ele>
        <time>2022-01-30T12:24:55Z</time>
      </trkpt>
      <trkpt lat="46.17494" lon="6.60292">
        <ele>1477</ele>
        <time>2022-01-30T12:24:58Z</time>
      </trkpt>
      <trkpt lat="46.17493" lon="6.60316">
        <ele>1474</ele>
        <time>2022-01-30T12:25:02Z</time>
      </trkpt>
      <trkpt lat="46.1749" lon="6.60332">
        <ele>1472</ele>
        <time>2022-01-30T12:25:05Z</time>
      </trkpt>
      <trkpt lat="46.17478" lon="6.6046">
        <ele>1459</ele>
        <time>2022-01-30T12:25:31Z</time>
      </trkpt>
      <trkpt lat="46.17473" lon="6.60486">
        <ele>1456</ele>
        <time>2022-01-30T12:25:38Z</time>
      </trkpt>
      <trkpt lat="46.17472" lon="6.60497">
        <ele>1455</ele>
        <time>2022-01-30T12:25:40Z</time>
      </trkpt>
      <trkpt lat="46.17465" lon="6.60537">
        <ele>1451</ele>
        <time>2022-01-30T12:25:51Z</time>
      </trkpt>
      <trkpt lat="46.17472" lon="6.60549">
        <ele>1448</ele>
        <time>2022-01-30T12:25:58Z</time>
      </trkpt>
      <trkpt lat="46.17479" lon="6.60534">
        <ele>1443</ele>
        <time>2022-01-30T12:26:02Z</time>
      </trkpt>
      <trkpt lat="46.17486" lon="6.60544">
        <ele>1440</ele>
        <time>2022-01-30T12:26:05Z</time>
      </trkpt>
      <trkpt lat="46.17488" lon="6.6056">
        <ele>1435</ele>
        <time>2022-01-30T12:26:27Z</time>
      </trkpt>
      <trkpt lat="46.17481" lon="6.60629">
        <ele>1430</ele>
        <time>2022-01-30T12:27:10Z</time>
      </trkpt>
      <trkpt lat="46.17483" lon="6.60629">
        <ele>1429</ele>
        <time>2022-01-30T12:27:17Z</time>
      </trkpt>
      <trkpt lat="46.17488" lon="6.60622">
        <ele>1428</ele>
        <time>2022-01-30T12:27:20Z</time>
      </trkpt>
      <trkpt lat="46.17491" lon="6.6063">
        <ele>1427</ele>
        <time>2022-01-30T12:27:22Z</time>
      </trkpt>
      <trkpt lat="46.1749" lon="6.60637">
        <ele>1424</ele>
        <time>2022-01-30T12:27:23Z</time>
      </trkpt>
      <trkpt lat="46.17487" lon="6.60654">
        <ele>1422</ele>
        <time>2022-01-30T12:27:27Z</time>
      </trkpt>
      <trkpt lat="46.17491" lon="6.60665">
        <ele>1421</ele>
        <time>2022-01-30T12:27:32Z</time>
      </trkpt>
      <trkpt lat="46.17489" lon="6.60686">
        <ele>1419</ele>
        <time>2022-01-30T12:27:36Z</time>
      </trkpt>
      <trkpt lat="46.1749" lon="6.60696">
        <ele>1417</ele>
        <time>2022-01-30T12:27:43Z</time>
      </trkpt>
      <trkpt lat="46.17486" lon="6.60699">
        <ele>1415</ele>
        <time>2022-01-30T12:29:07Z</time>
      </trkpt>
      <trkpt lat="46.17488" lon="6.60706">
        <ele>1420</ele>
        <time>2022-01-30T12:30:25Z</time>
      </trkpt>
      <trkpt lat="46.17471" lon="6.60757">
        <ele>1419</ele>
        <time>2022-01-30T12:30:38Z</time>
      </trkpt>
      <trkpt lat="46.17475" lon="6.60773">
        <ele>1414</ele>
        <time>2022-01-30T12:30:47Z</time>
      </trkpt>
      <trkpt lat="46.17471" lon="6.60807">
        <ele>1411</ele>
        <time>2022-01-30T12:30:56Z</time>
      </trkpt>
      <trkpt lat="46.17462" lon="6.60853">
        <ele>1409</ele>
        <time>2022-01-30T12:31:07Z</time>
      </trkpt>
      <trkpt lat="46.17456" lon="6.60863">
        <ele>1408</ele>
        <time>2022-01-30T12:31:10Z</time>
      </trkpt>
      <trkpt lat="46.17444" lon="6.60891">
        <ele>1401</ele>
        <time>2022-01-30T12:32:08Z</time>
      </trkpt>
      <trkpt lat="46.17443" lon="6.60893">
        <ele>1392</ele>
        <time>2022-01-30T12:35:05Z</time>
      </trkpt>
      <trkpt lat="46.17431" lon="6.60917">
        <ele>1388</ele>
        <time>2022-01-30T12:35:12Z</time>
      </trkpt>
      <trkpt lat="46.17424" lon="6.60941">
        <ele>1386</ele>
        <time>2022-01-30T12:35:16Z</time>
      </trkpt>
      <trkpt lat="46.1742" lon="6.60963">
        <ele>1385</ele>
        <time>2022-01-30T12:35:20Z</time>
      </trkpt>
      <trkpt lat="46.17412" lon="6.60978">
        <ele>1384</ele>
        <time>2022-01-30T12:35:34Z</time>
      </trkpt>
      <trkpt lat="46.17409" lon="6.60989">
        <ele>1383</ele>
        <time>2022-01-30T12:35:38Z</time>
      </trkpt>
      <trkpt lat="46.174" lon="6.61009">
        <ele>1382</ele>
        <time>2022-01-30T12:35:44Z</time>
      </trkpt>
      <trkpt lat="46.17399" lon="6.6102">
        <ele>1381</ele>
        <time>2022-01-30T12:35:47Z</time>
      </trkpt>
      <trkpt lat="46.17387" lon="6.611">
        <ele>1374</ele>
        <time>2022-01-30T12:36:07Z</time>
      </trkpt>
      <trkpt lat="46.17389" lon="6.61121">
        <ele>1374</ele>
        <time>2022-01-30T12:36:13Z</time>
      </trkpt>
      <trkpt lat="46.17388" lon="6.61129">
        <ele>1374</ele>
        <time>2022-01-30T12:36:15Z</time>
      </trkpt>
      <trkpt lat="46.17386" lon="6.61135">
        <ele>1373</ele>
        <time>2022-01-30T12:36:17Z</time>
      </trkpt>
      <trkpt lat="46.17381" lon="6.61142">
        <ele>1373</ele>
        <time>2022-01-30T12:36:20Z</time>
      </trkpt>
      <trkpt lat="46.17377" lon="6.61145">
        <ele>1373</ele>
        <time>2022-01-30T12:36:23Z</time>
      </trkpt>
      <trkpt lat="46.17372" lon="6.61146">
        <ele>1374</ele>
        <time>2022-01-30T12:36:28Z</time>
      </trkpt>
      <trkpt lat="46.17373" lon="6.61153">
        <ele>1371</ele>
        <time>2022-01-30T12:36:46Z</time>
      </trkpt>
      <trkpt lat="46.17374" lon="6.6116">
        <ele>1367</ele>
        <time>2022-01-30T12:36:50Z</time>
      </trkpt>
      <trkpt lat="46.1736" lon="6.61166">
        <ele>1366</ele>
        <time>2022-01-30T12:37:01Z</time>
      </trkpt>
      <trkpt lat="46.17356" lon="6.6117">
        <ele>1365</ele>
        <time>2022-01-30T12:37:03Z</time>
      </trkpt>
      <trkpt lat="46.17349" lon="6.61183">
        <ele>1363</ele>
        <time>2022-01-30T12:37:08Z</time>
      </trkpt>
      <trkpt lat="46.17348" lon="6.61191">
        <ele>1363</ele>
        <time>2022-01-30T12:37:11Z</time>
      </trkpt>
      <trkpt lat="46.17351" lon="6.61197">
        <ele>1361</ele>
        <time>2022-01-30T12:37:17Z</time>
      </trkpt>
      <trkpt lat="46.17352" lon="6.61206">
        <ele>1360</ele>
        <time>2022-01-30T12:37:20Z</time>
      </trkpt>
      <trkpt lat="46.17353" lon="6.61216">
        <ele>1360</ele>
        <time>2022-01-30T12:37:23Z</time>
      </trkpt>
      <trkpt lat="46.17354" lon="6.61236">
        <ele>1359</ele>
        <time>2022-01-30T12:37:29Z</time>
      </trkpt>
      <trkpt lat="46.17351" lon="6.61242">
        <ele>1358</ele>
        <time>2022-01-30T12:37:31Z</time>
      </trkpt>
      <trkpt lat="46.17351" lon="6.61249">
        <ele>1357</ele>
        <time>2022-01-30T12:37:33Z</time>
      </trkpt>
      <trkpt lat="46.17355" lon="6.61289">
        <ele>1358</ele>
        <time>2022-01-30T12:37:42Z</time>
      </trkpt>
      <trkpt lat="46.17353" lon="6.61295">
        <ele>1359</ele>
        <time>2022-01-30T12:37:45Z</time>
      </trkpt>
      <trkpt lat="46.17352" lon="6.613">
        <ele>1358</ele>
        <time>2022-01-30T12:38:38Z</time>
      </trkpt>
      <trkpt lat="46.17348" lon="6.61303">
        <ele>1358</ele>
        <time>2022-01-30T12:38:46Z</time>
      </trkpt>
      <trkpt lat="46.17346" lon="6.61305">
        <ele>1361</ele>
        <time>2022-01-30T12:39:42Z</time>
      </trkpt>
      <trkpt lat="46.17343" lon="6.61305">
        <ele>1362</ele>
        <time>2022-01-30T12:41:25Z</time>
      </trkpt>
      <trkpt lat="46.17342" lon="6.61304">
        <ele>1364</ele>
        <time>2022-01-30T12:50:08Z</time>
      </trkpt>
      <trkpt lat="46.17334" lon="6.61304">
        <ele>1365</ele>
        <time>2022-01-30T12:50:16Z</time>
      </trkpt>
      <trkpt lat="46.17331" lon="6.61302">
        <ele>1364</ele>
        <time>2022-01-30T12:50:20Z</time>
      </trkpt>
      <trkpt lat="46.17317" lon="6.61313">
        <ele>1367</ele>
        <time>2022-01-30T12:50:43Z</time>
      </trkpt>
      <trkpt lat="46.17314" lon="6.61318">
        <ele>1367</ele>
        <time>2022-01-30T12:50:49Z</time>
      </trkpt>
      <trkpt lat="46.17299" lon="6.61349">
        <ele>1363</ele>
        <time>2022-01-30T12:51:22Z</time>
      </trkpt>
      <trkpt lat="46.17279" lon="6.61387">
        <ele>1363</ele>
        <time>2022-01-30T12:51:53Z</time>
      </trkpt>
      <trkpt lat="46.1726" lon="6.61428">
        <ele>1364</ele>
        <time>2022-01-30T12:52:08Z</time>
      </trkpt>
      <trkpt lat="46.17257" lon="6.61432">
        <ele>1364</ele>
        <time>2022-01-30T12:52:09Z</time>
      </trkpt>
      <trkpt lat="46.17247" lon="6.61449">
        <ele>1363</ele>
        <time>2022-01-30T12:52:13Z</time>
      </trkpt>
      <trkpt lat="46.17242" lon="6.61464">
        <ele>1363</ele>
        <time>2022-01-30T12:52:16Z</time>
      </trkpt>
      <trkpt lat="46.17219" lon="6.6151">
        <ele>1359</ele>
        <time>2022-01-30T12:52:26Z</time>
      </trkpt>
      <trkpt lat="46.17218" lon="6.61516">
        <ele>1358</ele>
        <time>2022-01-30T12:52:27Z</time>
      </trkpt>
      <trkpt lat="46.172" lon="6.61551">
        <ele>1356</ele>
        <time>2022-01-30T12:52:33Z</time>
      </trkpt>
      <trkpt lat="46.17175" lon="6.61575">
        <ele>1355</ele>
        <time>2022-01-30T12:52:39Z</time>
      </trkpt>
      <trkpt lat="46.17161" lon="6.6158">
        <ele>1354</ele>
        <time>2022-01-30T12:52:42Z</time>
      </trkpt>
      <trkpt lat="46.17151" lon="6.6158">
        <ele>1354</ele>
        <time>2022-01-30T12:52:44Z</time>
      </trkpt>
      <trkpt lat="46.17136" lon="6.61578">
        <ele>1352</ele>
        <time>2022-01-30T12:52:47Z</time>
      </trkpt>
      <trkpt lat="46.17105" lon="6.61562">
        <ele>1347</ele>
        <time>2022-01-30T12:52:53Z</time>
      </trkpt>
      <trkpt lat="46.17076" lon="6.61542">
        <ele>1344</ele>
        <time>2022-01-30T12:52:59Z</time>
      </trkpt>
      <trkpt lat="46.17056" lon="6.61523">
        <ele>1343</ele>
        <time>2022-01-30T12:53:04Z</time>
      </trkpt>
      <trkpt lat="46.17051" lon="6.61522">
        <ele>1342</ele>
        <time>2022-01-30T12:53:05Z</time>
      </trkpt>
      <trkpt lat="46.17046" lon="6.61525">
        <ele>1341</ele>
        <time>2022-01-30T12:53:06Z</time>
      </trkpt>
      <trkpt lat="46.17043" lon="6.61531">
        <ele>1340</ele>
        <time>2022-01-30T12:53:07Z</time>
      </trkpt>
      <trkpt lat="46.17044" lon="6.61538">
        <ele>1340</ele>
        <time>2022-01-30T12:53:08Z</time>
      </trkpt>
      <trkpt lat="46.17047" lon="6.61544">
        <ele>1339</ele>
        <time>2022-01-30T12:53:09Z</time>
      </trkpt>
      <trkpt lat="46.17078" lon="6.61577">
        <ele>1334</ele>
        <time>2022-01-30T12:53:17Z</time>
      </trkpt>
      <trkpt lat="46.17083" lon="6.61589">
        <ele>1333</ele>
        <time>2022-01-30T12:53:19Z</time>
      </trkpt>
      <trkpt lat="46.1709" lon="6.61627">
        <ele>1329</ele>
        <time>2022-01-30T12:53:27Z</time>
      </trkpt>
      <trkpt lat="46.17088" lon="6.61632">
        <ele>1328</ele>
        <time>2022-01-30T12:53:31Z</time>
      </trkpt>
      <trkpt lat="46.17093" lon="6.61636">
        <ele>1324</ele>
        <time>2022-01-30T12:54:29Z</time>
      </trkpt>
      <trkpt lat="46.1712" lon="6.61666">
        <ele>1321</ele>
        <time>2022-01-30T12:54:38Z</time>
      </trkpt>
      <trkpt lat="46.17133" lon="6.61676">
        <ele>1321</ele>
        <time>2022-01-30T12:54:41Z</time>
      </trkpt>
      <trkpt lat="46.17146" lon="6.61681">
        <ele>1320</ele>
        <time>2022-01-30T12:54:44Z</time>
      </trkpt>
      <trkpt lat="46.17183" lon="6.61684">
        <ele>1317</ele>
        <time>2022-01-30T12:54:54Z</time>
      </trkpt>
      <trkpt lat="46.17191" lon="6.61688">
        <ele>1317</ele>
        <time>2022-01-30T12:54:56Z</time>
      </trkpt>
      <trkpt lat="46.17194" lon="6.61693">
        <ele>1316</ele>
        <time>2022-01-30T12:54:57Z</time>
      </trkpt>
      <trkpt lat="46.17197" lon="6.61704">
        <ele>1316</ele>
        <time>2022-01-30T12:54:59Z</time>
      </trkpt>
      <trkpt lat="46.17193" lon="6.61709">
        <ele>1316</ele>
        <time>2022-01-30T12:55:00Z</time>
      </trkpt>
      <trkpt lat="46.17162" lon="6.6172">
        <ele>1315</ele>
        <time>2022-01-30T12:55:08Z</time>
      </trkpt>
      <trkpt lat="46.1711" lon="6.61757">
        <ele>1313</ele>
        <time>2022-01-30T12:55:26Z</time>
      </trkpt>
      <trkpt lat="46.17102" lon="6.61758">
        <ele>1311</ele>
        <time>2022-01-30T12:55:28Z</time>
      </trkpt>
      <trkpt lat="46.17076" lon="6.61749">
        <ele>1307</ele>
        <time>2022-01-30T12:55:34Z</time>
      </trkpt>
      <trkpt lat="46.17062" lon="6.61738">
        <ele>1304</ele>
        <time>2022-01-30T12:55:37Z</time>
      </trkpt>
      <trkpt lat="46.17044" lon="6.61727">
        <ele>1301</ele>
        <time>2022-01-30T12:55:41Z</time>
      </trkpt>
      <trkpt lat="46.17035" lon="6.61722">
        <ele>1300</ele>
        <time>2022-01-30T12:55:43Z</time>
      </trkpt>
      <trkpt lat="46.17019" lon="6.61717">
        <ele>1298</ele>
        <time>2022-01-30T12:55:46Z</time>
      </trkpt>
      <trkpt lat="46.1701" lon="6.61709">
        <ele>1297</ele>
        <time>2022-01-30T12:55:48Z</time>
      </trkpt>
      <trkpt lat="46.17" lon="6.61705">
        <ele>1295</ele>
        <time>2022-01-30T12:55:50Z</time>
      </trkpt>
      <trkpt lat="46.16995" lon="6.61702">
        <ele>1295</ele>
        <time>2022-01-30T12:55:51Z</time>
      </trkpt>
      <trkpt lat="46.16991" lon="6.61702">
        <ele>1294</ele>
        <time>2022-01-30T12:55:52Z</time>
      </trkpt>
      <trkpt lat="46.16983" lon="6.61696">
        <ele>1294</ele>
        <time>2022-01-30T12:55:54Z</time>
      </trkpt>
      <trkpt lat="46.16973" lon="6.61693">
        <ele>1293</ele>
        <time>2022-01-30T12:55:56Z</time>
      </trkpt>
      <trkpt lat="46.16969" lon="6.61691">
        <ele>1292</ele>
        <time>2022-01-30T12:55:57Z</time>
      </trkpt>
      <trkpt lat="46.16959" lon="6.61687">
        <ele>1291</ele>
        <time>2022-01-30T12:55:59Z</time>
      </trkpt>
      <trkpt lat="46.16922" lon="6.61668">
        <ele>1287</ele>
        <time>2022-01-30T12:56:07Z</time>
      </trkpt>
      <trkpt lat="46.16908" lon="6.61664">
        <ele>1285</ele>
        <time>2022-01-30T12:56:12Z</time>
      </trkpt>
      <trkpt lat="46.16905" lon="6.61665">
        <ele>1285</ele>
        <time>2022-01-30T12:56:21Z</time>
      </trkpt>
      <trkpt lat="46.16779" lon="6.6169">
        <ele>1277</ele>
        <time>2022-01-30T12:56:51Z</time>
      </trkpt>
      <trkpt lat="46.16625" lon="6.61747">
        <ele>1268</ele>
        <time>2022-01-30T12:57:22Z</time>
      </trkpt>
      <trkpt lat="46.16491" lon="6.61816">
        <ele>1253</ele>
        <time>2022-01-30T12:57:52Z</time>
      </trkpt>
      <trkpt lat="46.16443" lon="6.6184">
        <ele>1248</ele>
        <time>2022-01-30T12:58:00Z</time>
      </trkpt>
      <trkpt lat="46.16281" lon="6.61906">
        <ele>1232</ele>
        <time>2022-01-30T12:58:30Z</time>
      </trkpt>
      <trkpt lat="46.16257" lon="6.61903">
        <ele>1229</ele>
        <time>2022-01-30T12:58:34Z</time>
      </trkpt>
      <trkpt lat="46.16146" lon="6.61866">
        <ele>1220</ele>
        <time>2022-01-30T12:58:56Z</time>
      </trkpt>
      <trkpt lat="46.16067" lon="6.61867">
        <ele>1217</ele>
        <time>2022-01-30T12:59:26Z</time>
      </trkpt>
      <trkpt lat="46.16042" lon="6.61867">
        <ele>1218</ele>
        <time>2022-01-30T12:59:38Z</time>
      </trkpt>
      <trkpt lat="46.16036" lon="6.6187">
        <ele>1218</ele>
        <time>2022-01-30T12:59:40Z</time>
      </trkpt>
      <trkpt lat="46.1603" lon="6.6187">
        <ele>1219</ele>
        <time>2022-01-30T12:59:43Z</time>
      </trkpt>
      <trkpt lat="46.15974" lon="6.61859">
        <ele>1213</ele>
        <time>2022-01-30T13:00:03Z</time>
      </trkpt>
      <trkpt lat="46.15875" lon="6.61821">
        <ele>1211</ele>
        <time>2022-01-30T13:00:33Z</time>
      </trkpt>
      <trkpt lat="46.15813" lon="6.618">
        <ele>1212</ele>
        <time>2022-01-30T13:01:04Z</time>
      </trkpt>
      <trkpt lat="46.15785" lon="6.61788">
        <ele>1217</ele>
        <time>2022-01-30T13:01:37Z</time>
      </trkpt>
      <trkpt lat="46.15724" lon="6.61766">
        <ele>1218</ele>
        <time>2022-01-30T13:02:08Z</time>
      </trkpt>
      <trkpt lat="46.15672" lon="6.61752">
        <ele>1214</ele>
        <time>2022-01-30T13:02:22Z</time>
      </trkpt>
      <trkpt lat="46.15645" lon="6.61758">
        <ele>1213</ele>
        <time>2022-01-30T13:02:33Z</time>
      </trkpt>
      <trkpt lat="46.15623" lon="6.61756">
        <ele>1206</ele>
        <time>2022-01-30T13:02:53Z</time>
      </trkpt>
      <trkpt lat="46.15617" lon="6.6176">
        <ele>1204</ele>
        <time>2022-01-30T13:03:00Z</time>
      </trkpt>
      <trkpt lat="46.1562" lon="6.61757">
        <ele>1199</ele>
        <time>2022-01-30T13:03:54Z</time>
      </trkpt>
      <trkpt lat="46.15616" lon="6.61756">
        <ele>1196</ele>
        <time>2022-01-30T13:05:45Z</time>
      </trkpt>
      <trkpt lat="46.15613" lon="6.61753">
        <ele>1196</ele>
        <time>2022-01-30T13:05:57Z</time>
      </trkpt>
      <trkpt lat="46.15608" lon="6.61754">
        <ele>1199</ele>
        <time>2022-01-30T13:06:04Z</time>
      </trkpt>
      <trkpt lat="46.15605" lon="6.61755">
        <ele>1199</ele>
        <time>2022-01-30T13:06:08Z</time>
      </trkpt>
      <trkpt lat="46.15598" lon="6.61761">
        <ele>1199</ele>
        <time>2022-01-30T13:06:16Z</time>
      </trkpt>
      <trkpt lat="46.15594" lon="6.6176">
        <ele>1200</ele>
        <time>2022-01-30T13:06:27Z</time>
      </trkpt>
      <trkpt lat="46.15591" lon="6.61763">
        <ele>1198</ele>
        <time>2022-01-30T13:06:31Z</time>
      </trkpt>
      <trkpt lat="46.15586" lon="6.61763">
        <ele>1198</ele>
        <time>2022-01-30T13:06:36Z</time>
      </trkpt>
      <trkpt lat="46.15581" lon="6.61761">
        <ele>1199</ele>
        <time>2022-01-30T13:06:40Z</time>
      </trkpt>
      <trkpt lat="46.15578" lon="6.61758">
        <ele>1200</ele>
        <time>2022-01-30T13:06:44Z</time>
      </trkpt>
      <trkpt lat="46.15553" lon="6.61744">
        <ele>1200</ele>
        <time>2022-01-30T13:07:14Z</time>
      </trkpt>
      <trkpt lat="46.15527" lon="6.61728">
        <ele>1200</ele>
        <time>2022-01-30T13:07:45Z</time>
      </trkpt>
      <trkpt lat="46.15521" lon="6.61721">
        <ele>1199</ele>
        <time>2022-01-30T13:07:54Z</time>
      </trkpt>
      <trkpt lat="46.15512" lon="6.61718">
        <ele>1201</ele>
        <time>2022-01-30T13:08:05Z</time>
      </trkpt>
      <trkpt lat="46.15507" lon="6.61714">
        <ele>1202</ele>
        <time>2022-01-30T13:08:10Z</time>
      </trkpt>
      <trkpt lat="46.15507" lon="6.6172">
        <ele>1203</ele>
        <time>2022-01-30T13:08:20Z</time>
      </trkpt>
    </trkseg>
  </trk>
</gpx>